<?xml version="1.0" encoding="UTF-8" standalone="no" ?>
<gpx xmlns="http://www.topografix.com/GPX/1/1" xmlns:xsi="http://www.w3.org/2001/XMLSchema-instance" xsi:schemaLocation="http://www.topografix.com/GPX/1/1 http://www.topografix.com/GPX/1/1/gpx.xsd" version="1.1" creator="VisuGPX - https://www.visugpx.com">
  <metadata>
    <name>secteur Saverne - Dabo - Petite Pierre</name>
  </metadata>
  <trk>
    <name><![CDATA[secteur Saverne - Dabo - Petite Pierre_14]]></name>
    <trkseg>
      <trkpt lat="48.64848" lon="7.20083">
        <ele>341.64</ele>
        <time>2020-08-19T18:42:55.000Z</time>
      </trkpt>
      <trkpt lat="48.64848" lon="7.20083">
        <ele>341.64</ele>
        <time>2020-08-19T18:42:55.000Z</time>
      </trkpt>
      <trkpt lat="48.64848" lon="7.20083">
        <ele>341.64</ele>
        <time>2020-08-19T18:42:55.000Z</time>
      </trkpt>
      <trkpt lat="48.64848" lon="7.20083">
        <ele>341.64</ele>
        <time>2020-08-19T18:42:55.000Z</time>
      </trkpt>
      <trkpt lat="48.64848" lon="7.20083">
        <ele>341.64</ele>
        <time>2020-08-19T18:42:55.000Z</time>
      </trkpt>
      <trkpt lat="48.64848" lon="7.20083">
        <ele>341.64</ele>
        <time>2020-08-19T18:42:55.000Z</time>
      </trkpt>
      <trkpt lat="48.64848" lon="7.20083">
        <ele>341.64</ele>
        <time>2020-08-19T18:42:55.000Z</time>
      </trkpt>
      <trkpt lat="48.64848" lon="7.20083">
        <ele>341.64</ele>
        <time>2020-08-19T18:42:55.000Z</time>
      </trkpt>
      <trkpt lat="48.64847" lon="7.20076">
        <ele>339.53</ele>
        <time>2020-08-19T18:42:56.000Z</time>
      </trkpt>
      <trkpt lat="48.64846" lon="7.20067">
        <ele>340.47</ele>
        <time>2020-08-19T18:42:57.000Z</time>
      </trkpt>
      <trkpt lat="48.64849" lon="7.20056">
        <ele>342.61</ele>
        <time>2020-08-19T18:42:59.000Z</time>
      </trkpt>
      <trkpt lat="48.64854" lon="7.20046">
        <ele>340.95</ele>
        <time>2020-08-19T18:43:01.000Z</time>
      </trkpt>
      <trkpt lat="48.64859" lon="7.20037">
        <ele>341.03</ele>
        <time>2020-08-19T18:43:03.000Z</time>
      </trkpt>
      <trkpt lat="48.64863" lon="7.20027">
        <ele>339.97</ele>
        <time>2020-08-19T18:43:05.000Z</time>
      </trkpt>
      <trkpt lat="48.64867" lon="7.20019">
        <ele>340.81</ele>
        <time>2020-08-19T18:43:06.000Z</time>
      </trkpt>
      <trkpt lat="48.6487" lon="7.20012">
        <ele>341.32</ele>
        <time>2020-08-19T18:43:07.000Z</time>
      </trkpt>
      <trkpt lat="48.64873" lon="7.20006">
        <ele>340.17</ele>
        <time>2020-08-19T18:43:08.000Z</time>
      </trkpt>
      <trkpt lat="48.64877" lon="7.19998">
        <ele>338.97</ele>
        <time>2020-08-19T18:43:09.000Z</time>
      </trkpt>
      <trkpt lat="48.64881" lon="7.19991">
        <ele>335.59</ele>
        <time>2020-08-19T18:43:10.000Z</time>
      </trkpt>
      <trkpt lat="48.64886" lon="7.19983">
        <ele>335.76</ele>
        <time>2020-08-19T18:43:11.000Z</time>
      </trkpt>
      <trkpt lat="48.64892" lon="7.19974">
        <ele>334.99</ele>
        <time>2020-08-19T18:43:12.000Z</time>
      </trkpt>
      <trkpt lat="48.64897" lon="7.19966">
        <ele>333.82</ele>
        <time>2020-08-19T18:43:13.000Z</time>
      </trkpt>
      <trkpt lat="48.64903" lon="7.19957">
        <ele>334.63</ele>
        <time>2020-08-19T18:43:14.000Z</time>
      </trkpt>
      <trkpt lat="48.64909" lon="7.19948">
        <ele>334.8</ele>
        <time>2020-08-19T18:43:15.000Z</time>
      </trkpt>
      <trkpt lat="48.64915" lon="7.1994">
        <ele>335.45</ele>
        <time>2020-08-19T18:43:16.000Z</time>
      </trkpt>
      <trkpt lat="48.64921" lon="7.19933">
        <ele>336.22</ele>
        <time>2020-08-19T18:43:17.000Z</time>
      </trkpt>
      <trkpt lat="48.64928" lon="7.19928">
        <ele>336.02</ele>
        <time>2020-08-19T18:43:18.000Z</time>
      </trkpt>
      <trkpt lat="48.64935" lon="7.19923">
        <ele>336.09</ele>
        <time>2020-08-19T18:43:19.000Z</time>
      </trkpt>
      <trkpt lat="48.64943" lon="7.1992">
        <ele>335.69</ele>
        <time>2020-08-19T18:43:20.000Z</time>
      </trkpt>
      <trkpt lat="48.64951" lon="7.19919">
        <ele>336.61</ele>
        <time>2020-08-19T18:43:21.000Z</time>
      </trkpt>
      <trkpt lat="48.64959" lon="7.19918">
        <ele>337.32</ele>
        <time>2020-08-19T18:43:22.000Z</time>
      </trkpt>
      <trkpt lat="48.64968" lon="7.19918">
        <ele>339.14</ele>
        <time>2020-08-19T18:43:23.000Z</time>
      </trkpt>
      <trkpt lat="48.64976" lon="7.19923">
        <ele>340.81</ele>
        <time>2020-08-19T18:43:24.000Z</time>
      </trkpt>
      <trkpt lat="48.64986" lon="7.19927">
        <ele>343.47</ele>
        <time>2020-08-19T18:43:25.000Z</time>
      </trkpt>
      <trkpt lat="48.64993" lon="7.19933">
        <ele>342.89</ele>
        <time>2020-08-19T18:43:26.000Z</time>
      </trkpt>
      <trkpt lat="48.65" lon="7.19942">
        <ele>342.82</ele>
        <time>2020-08-19T18:43:27.000Z</time>
      </trkpt>
      <trkpt lat="48.65007" lon="7.1995">
        <ele>340.5</ele>
        <time>2020-08-19T18:43:28.000Z</time>
      </trkpt>
      <trkpt lat="48.65014" lon="7.19959">
        <ele>342.04</ele>
        <time>2020-08-19T18:43:29.000Z</time>
      </trkpt>
      <trkpt lat="48.6502" lon="7.19968">
        <ele>341.87</ele>
        <time>2020-08-19T18:43:30.000Z</time>
      </trkpt>
      <trkpt lat="48.65027" lon="7.19976">
        <ele>340.72</ele>
        <time>2020-08-19T18:43:31.000Z</time>
      </trkpt>
      <trkpt lat="48.65034" lon="7.19984">
        <ele>341</ele>
        <time>2020-08-19T18:43:32.000Z</time>
      </trkpt>
      <trkpt lat="48.65041" lon="7.19994">
        <ele>339.94</ele>
        <time>2020-08-19T18:43:33.000Z</time>
      </trkpt>
      <trkpt lat="48.65049" lon="7.20002">
        <ele>339.94</ele>
        <time>2020-08-19T18:43:34.000Z</time>
      </trkpt>
      <trkpt lat="48.65054" lon="7.20011">
        <ele>342.13</ele>
        <time>2020-08-19T18:43:35.000Z</time>
      </trkpt>
      <trkpt lat="48.65059" lon="7.20022">
        <ele>341.63</ele>
        <time>2020-08-19T18:43:36.000Z</time>
      </trkpt>
      <trkpt lat="48.65065" lon="7.20033">
        <ele>341.03</ele>
        <time>2020-08-19T18:43:37.000Z</time>
      </trkpt>
      <trkpt lat="48.65071" lon="7.20044">
        <ele>341.2</ele>
        <time>2020-08-19T18:43:38.000Z</time>
      </trkpt>
      <trkpt lat="48.65078" lon="7.20053">
        <ele>340.99</ele>
        <time>2020-08-19T18:43:39.000Z</time>
      </trkpt>
      <trkpt lat="48.65085" lon="7.20061">
        <ele>341.01</ele>
        <time>2020-08-19T18:43:40.000Z</time>
      </trkpt>
      <trkpt lat="48.6509" lon="7.20069">
        <ele>340.49</ele>
        <time>2020-08-19T18:43:41.000Z</time>
      </trkpt>
      <trkpt lat="48.65097" lon="7.20078">
        <ele>338.91</ele>
        <time>2020-08-19T18:43:42.000Z</time>
      </trkpt>
      <trkpt lat="48.65104" lon="7.20086">
        <ele>338.43</ele>
        <time>2020-08-19T18:43:43.000Z</time>
      </trkpt>
      <trkpt lat="48.65111" lon="7.20093">
        <ele>339.18</ele>
        <time>2020-08-19T18:43:44.000Z</time>
      </trkpt>
      <trkpt lat="48.6512" lon="7.20097">
        <ele>339.59</ele>
        <time>2020-08-19T18:43:45.000Z</time>
      </trkpt>
      <trkpt lat="48.65128" lon="7.20103">
        <ele>339.58</ele>
        <time>2020-08-19T18:43:46.000Z</time>
      </trkpt>
      <trkpt lat="48.65137" lon="7.20106">
        <ele>340.14</ele>
        <time>2020-08-19T18:43:47.000Z</time>
      </trkpt>
      <trkpt lat="48.65145" lon="7.20109">
        <ele>340.11</ele>
        <time>2020-08-19T18:43:48.000Z</time>
      </trkpt>
      <trkpt lat="48.65154" lon="7.20112">
        <ele>339.73</ele>
        <time>2020-08-19T18:43:49.000Z</time>
      </trkpt>
      <trkpt lat="48.65163" lon="7.20115">
        <ele>339.05</ele>
        <time>2020-08-19T18:43:50.000Z</time>
      </trkpt>
      <trkpt lat="48.65173" lon="7.20117">
        <ele>338.21</ele>
        <time>2020-08-19T18:43:51.000Z</time>
      </trkpt>
      <trkpt lat="48.65183" lon="7.20118">
        <ele>337.72</ele>
        <time>2020-08-19T18:43:52.000Z</time>
      </trkpt>
      <trkpt lat="48.65192" lon="7.20118">
        <ele>337.95</ele>
        <time>2020-08-19T18:43:53.000Z</time>
      </trkpt>
      <trkpt lat="48.65202" lon="7.20119">
        <ele>339.85</ele>
        <time>2020-08-19T18:43:54.000Z</time>
      </trkpt>
      <trkpt lat="48.6521" lon="7.2012">
        <ele>340.11</ele>
        <time>2020-08-19T18:43:55.000Z</time>
      </trkpt>
      <trkpt lat="48.6522" lon="7.20124">
        <ele>338.91</ele>
        <time>2020-08-19T18:43:56.000Z</time>
      </trkpt>
      <trkpt lat="48.65229" lon="7.20126">
        <ele>337.9</ele>
        <time>2020-08-19T18:43:57.000Z</time>
      </trkpt>
      <trkpt lat="48.65238" lon="7.20131">
        <ele>338.14</ele>
        <time>2020-08-19T18:43:58.000Z</time>
      </trkpt>
      <trkpt lat="48.65246" lon="7.20137">
        <ele>336.5</ele>
        <time>2020-08-19T18:43:59.000Z</time>
      </trkpt>
      <trkpt lat="48.65255" lon="7.20143">
        <ele>337.21</ele>
        <time>2020-08-19T18:44:00.000Z</time>
      </trkpt>
      <trkpt lat="48.65264" lon="7.20148">
        <ele>338.82</ele>
        <time>2020-08-19T18:44:01.000Z</time>
      </trkpt>
      <trkpt lat="48.65271" lon="7.20154">
        <ele>338.8</ele>
        <time>2020-08-19T18:44:02.000Z</time>
      </trkpt>
      <trkpt lat="48.65279" lon="7.2016">
        <ele>338.45</ele>
        <time>2020-08-19T18:44:03.000Z</time>
      </trkpt>
      <trkpt lat="48.65288" lon="7.20166">
        <ele>337.67</ele>
        <time>2020-08-19T18:44:04.000Z</time>
      </trkpt>
      <trkpt lat="48.65296" lon="7.20174">
        <ele>336.98</ele>
        <time>2020-08-19T18:44:05.000Z</time>
      </trkpt>
      <trkpt lat="48.65305" lon="7.2018">
        <ele>338.07</ele>
        <time>2020-08-19T18:44:06.000Z</time>
      </trkpt>
      <trkpt lat="48.65313" lon="7.20186">
        <ele>338.46</ele>
        <time>2020-08-19T18:44:07.000Z</time>
      </trkpt>
      <trkpt lat="48.65321" lon="7.20192">
        <ele>338.85</ele>
        <time>2020-08-19T18:44:08.000Z</time>
      </trkpt>
      <trkpt lat="48.65329" lon="7.20198">
        <ele>339.15</ele>
        <time>2020-08-19T18:44:09.000Z</time>
      </trkpt>
      <trkpt lat="48.65336" lon="7.20204">
        <ele>339.61</ele>
        <time>2020-08-19T18:44:10.000Z</time>
      </trkpt>
      <trkpt lat="48.65343" lon="7.2021">
        <ele>339.83</ele>
        <time>2020-08-19T18:44:11.000Z</time>
      </trkpt>
      <trkpt lat="48.65352" lon="7.20217">
        <ele>340.06</ele>
        <time>2020-08-19T18:44:12.000Z</time>
      </trkpt>
      <trkpt lat="48.6536" lon="7.20223">
        <ele>340.82</ele>
        <time>2020-08-19T18:44:13.000Z</time>
      </trkpt>
      <trkpt lat="48.65368" lon="7.20228">
        <ele>341.43</ele>
        <time>2020-08-19T18:44:14.000Z</time>
      </trkpt>
      <trkpt lat="48.65375" lon="7.20236">
        <ele>340.97</ele>
        <time>2020-08-19T18:44:15.000Z</time>
      </trkpt>
      <trkpt lat="48.65382" lon="7.20243">
        <ele>341.53</ele>
        <time>2020-08-19T18:44:16.000Z</time>
      </trkpt>
      <trkpt lat="48.65392" lon="7.20244">
        <ele>341.55</ele>
        <time>2020-08-19T18:44:17.000Z</time>
      </trkpt>
      <trkpt lat="48.65401" lon="7.20249">
        <ele>341.35</ele>
        <time>2020-08-19T18:44:18.000Z</time>
      </trkpt>
      <trkpt lat="48.65409" lon="7.20254">
        <ele>341.22</ele>
        <time>2020-08-19T18:44:19.000Z</time>
      </trkpt>
      <trkpt lat="48.65417" lon="7.20257">
        <ele>341.56</ele>
        <time>2020-08-19T18:44:20.000Z</time>
      </trkpt>
      <trkpt lat="48.65425" lon="7.20261">
        <ele>341.29</ele>
        <time>2020-08-19T18:44:21.000Z</time>
      </trkpt>
      <trkpt lat="48.65434" lon="7.20263">
        <ele>341.67</ele>
        <time>2020-08-19T18:44:22.000Z</time>
      </trkpt>
      <trkpt lat="48.65445" lon="7.20263">
        <ele>341.45</ele>
        <time>2020-08-19T18:44:23.000Z</time>
      </trkpt>
      <trkpt lat="48.65455" lon="7.20265">
        <ele>341.15</ele>
        <time>2020-08-19T18:44:24.000Z</time>
      </trkpt>
      <trkpt lat="48.65463" lon="7.20269">
        <ele>341.13</ele>
        <time>2020-08-19T18:44:25.000Z</time>
      </trkpt>
      <trkpt lat="48.65472" lon="7.20271">
        <ele>340.98</ele>
        <time>2020-08-19T18:44:26.000Z</time>
      </trkpt>
      <trkpt lat="48.65479" lon="7.20274">
        <ele>339.69</ele>
        <time>2020-08-19T18:44:27.000Z</time>
      </trkpt>
      <trkpt lat="48.65489" lon="7.20274">
        <ele>339.54</ele>
        <time>2020-08-19T18:44:28.000Z</time>
      </trkpt>
      <trkpt lat="48.65498" lon="7.20274">
        <ele>341.19</ele>
        <time>2020-08-19T18:44:29.000Z</time>
      </trkpt>
      <trkpt lat="48.65507" lon="7.20274">
        <ele>340.4</ele>
        <time>2020-08-19T18:44:30.000Z</time>
      </trkpt>
      <trkpt lat="48.65515" lon="7.20271">
        <ele>339.24</ele>
        <time>2020-08-19T18:44:31.000Z</time>
      </trkpt>
      <trkpt lat="48.65524" lon="7.20267">
        <ele>338.57</ele>
        <time>2020-08-19T18:44:32.000Z</time>
      </trkpt>
      <trkpt lat="48.65533" lon="7.20263">
        <ele>338.55</ele>
        <time>2020-08-19T18:44:33.000Z</time>
      </trkpt>
      <trkpt lat="48.65542" lon="7.20258">
        <ele>338.38</ele>
        <time>2020-08-19T18:44:34.000Z</time>
      </trkpt>
      <trkpt lat="48.6555" lon="7.20252">
        <ele>337.81</ele>
        <time>2020-08-19T18:44:35.000Z</time>
      </trkpt>
      <trkpt lat="48.65557" lon="7.20245">
        <ele>338.63</ele>
        <time>2020-08-19T18:44:36.000Z</time>
      </trkpt>
      <trkpt lat="48.65565" lon="7.20238">
        <ele>339.17</ele>
        <time>2020-08-19T18:44:37.000Z</time>
      </trkpt>
      <trkpt lat="48.65573" lon="7.20229">
        <ele>338.32</ele>
        <time>2020-08-19T18:44:38.000Z</time>
      </trkpt>
      <trkpt lat="48.6558" lon="7.2022">
        <ele>338.14</ele>
        <time>2020-08-19T18:44:39.000Z</time>
      </trkpt>
      <trkpt lat="48.65586" lon="7.20211">
        <ele>338.4</ele>
        <time>2020-08-19T18:44:40.000Z</time>
      </trkpt>
      <trkpt lat="48.65593" lon="7.20203">
        <ele>337.03</ele>
        <time>2020-08-19T18:44:41.000Z</time>
      </trkpt>
      <trkpt lat="48.656" lon="7.20195">
        <ele>335.94</ele>
        <time>2020-08-19T18:44:42.000Z</time>
      </trkpt>
      <trkpt lat="48.65607" lon="7.20185">
        <ele>335.95</ele>
        <time>2020-08-19T18:44:43.000Z</time>
      </trkpt>
      <trkpt lat="48.65611" lon="7.20174">
        <ele>336.37</ele>
        <time>2020-08-19T18:44:44.000Z</time>
      </trkpt>
      <trkpt lat="48.65617" lon="7.20165">
        <ele>336.42</ele>
        <time>2020-08-19T18:44:45.000Z</time>
      </trkpt>
      <trkpt lat="48.6562" lon="7.20153">
        <ele>335.81</ele>
        <time>2020-08-19T18:44:46.000Z</time>
      </trkpt>
      <trkpt lat="48.65623" lon="7.2014">
        <ele>332.64</ele>
        <time>2020-08-19T18:44:47.000Z</time>
      </trkpt>
      <trkpt lat="48.65626" lon="7.20127">
        <ele>332.95</ele>
        <time>2020-08-19T18:44:48.000Z</time>
      </trkpt>
      <trkpt lat="48.65627" lon="7.20114">
        <ele>334.09</ele>
        <time>2020-08-19T18:44:49.000Z</time>
      </trkpt>
      <trkpt lat="48.65626" lon="7.20103">
        <ele>333.17</ele>
        <time>2020-08-19T18:44:50.000Z</time>
      </trkpt>
      <trkpt lat="48.65623" lon="7.20091">
        <ele>333.84</ele>
        <time>2020-08-19T18:44:51.000Z</time>
      </trkpt>
      <trkpt lat="48.65618" lon="7.20082">
        <ele>332.76</ele>
        <time>2020-08-19T18:44:52.000Z</time>
      </trkpt>
      <trkpt lat="48.65611" lon="7.20074">
        <ele>331.94</ele>
        <time>2020-08-19T18:44:53.000Z</time>
      </trkpt>
      <trkpt lat="48.65605" lon="7.20066">
        <ele>331.83</ele>
        <time>2020-08-19T18:44:54.000Z</time>
      </trkpt>
      <trkpt lat="48.656" lon="7.20058">
        <ele>331.73</ele>
        <time>2020-08-19T18:44:55.000Z</time>
      </trkpt>
      <trkpt lat="48.65594" lon="7.2005">
        <ele>331.55</ele>
        <time>2020-08-19T18:44:56.000Z</time>
      </trkpt>
      <trkpt lat="48.65585" lon="7.20042">
        <ele>330.97</ele>
        <time>2020-08-19T18:44:57.000Z</time>
      </trkpt>
      <trkpt lat="48.65579" lon="7.20034">
        <ele>330.94</ele>
        <time>2020-08-19T18:44:58.000Z</time>
      </trkpt>
      <trkpt lat="48.65572" lon="7.20024">
        <ele>330.9</ele>
        <time>2020-08-19T18:44:59.000Z</time>
      </trkpt>
      <trkpt lat="48.65566" lon="7.20015">
        <ele>330.84</ele>
        <time>2020-08-19T18:45:00.000Z</time>
      </trkpt>
      <trkpt lat="48.65561" lon="7.20005">
        <ele>330.59</ele>
        <time>2020-08-19T18:45:01.000Z</time>
      </trkpt>
      <trkpt lat="48.65557" lon="7.19995">
        <ele>331.37</ele>
        <time>2020-08-19T18:45:02.000Z</time>
      </trkpt>
      <trkpt lat="48.65555" lon="7.19984">
        <ele>331.62</ele>
        <time>2020-08-19T18:45:03.000Z</time>
      </trkpt>
      <trkpt lat="48.65553" lon="7.19972">
        <ele>331.3</ele>
        <time>2020-08-19T18:45:04.000Z</time>
      </trkpt>
      <trkpt lat="48.65553" lon="7.19961">
        <ele>330.56</ele>
        <time>2020-08-19T18:45:05.000Z</time>
      </trkpt>
      <trkpt lat="48.65559" lon="7.19949">
        <ele>331.42</ele>
        <time>2020-08-19T18:45:06.000Z</time>
      </trkpt>
      <trkpt lat="48.65563" lon="7.19937">
        <ele>333.11</ele>
        <time>2020-08-19T18:45:07.000Z</time>
      </trkpt>
      <trkpt lat="48.65568" lon="7.19927">
        <ele>333.48</ele>
        <time>2020-08-19T18:45:08.000Z</time>
      </trkpt>
      <trkpt lat="48.65573" lon="7.19918">
        <ele>333.39</ele>
        <time>2020-08-19T18:45:09.000Z</time>
      </trkpt>
      <trkpt lat="48.65579" lon="7.19912">
        <ele>333.32</ele>
        <time>2020-08-19T18:45:10.000Z</time>
      </trkpt>
      <trkpt lat="48.65585" lon="7.19903">
        <ele>332.95</ele>
        <time>2020-08-19T18:45:11.000Z</time>
      </trkpt>
      <trkpt lat="48.65593" lon="7.19898">
        <ele>331.87</ele>
        <time>2020-08-19T18:45:12.000Z</time>
      </trkpt>
      <trkpt lat="48.65599" lon="7.19891">
        <ele>331.94</ele>
        <time>2020-08-19T18:45:13.000Z</time>
      </trkpt>
      <trkpt lat="48.65608" lon="7.19887">
        <ele>333.4</ele>
        <time>2020-08-19T18:45:14.000Z</time>
      </trkpt>
      <trkpt lat="48.65616" lon="7.19884">
        <ele>333.51</ele>
        <time>2020-08-19T18:45:15.000Z</time>
      </trkpt>
      <trkpt lat="48.65624" lon="7.19885">
        <ele>332.11</ele>
        <time>2020-08-19T18:45:16.000Z</time>
      </trkpt>
      <trkpt lat="48.65633" lon="7.19886">
        <ele>332.11</ele>
        <time>2020-08-19T18:45:17.000Z</time>
      </trkpt>
      <trkpt lat="48.65641" lon="7.19889">
        <ele>333.49</ele>
        <time>2020-08-19T18:45:18.000Z</time>
      </trkpt>
      <trkpt lat="48.6565" lon="7.19893">
        <ele>335.37</ele>
        <time>2020-08-19T18:45:19.000Z</time>
      </trkpt>
      <trkpt lat="48.65658" lon="7.19899">
        <ele>407.59</ele>
        <time>2020-08-19T18:45:20.000Z</time>
      </trkpt>
      <trkpt lat="48.65665" lon="7.19906">
        <ele>394.25</ele>
        <time>2020-08-19T18:45:21.000Z</time>
      </trkpt>
      <trkpt lat="48.65674" lon="7.19913">
        <ele>382.36</ele>
        <time>2020-08-19T18:45:22.000Z</time>
      </trkpt>
      <trkpt lat="48.65682" lon="7.1992">
        <ele>369.55</ele>
        <time>2020-08-19T18:45:23.000Z</time>
      </trkpt>
      <trkpt lat="48.65689" lon="7.19928">
        <ele>363.63</ele>
        <time>2020-08-19T18:45:24.000Z</time>
      </trkpt>
      <trkpt lat="48.65695" lon="7.19936">
        <ele>360.1</ele>
        <time>2020-08-19T18:45:25.000Z</time>
      </trkpt>
      <trkpt lat="48.65702" lon="7.19948">
        <ele>363.39</ele>
        <time>2020-08-19T18:45:26.000Z</time>
      </trkpt>
      <trkpt lat="48.65706" lon="7.19961">
        <ele>357.01</ele>
        <time>2020-08-19T18:45:27.000Z</time>
      </trkpt>
      <trkpt lat="48.65712" lon="7.19969">
        <ele>354</ele>
        <time>2020-08-19T18:45:28.000Z</time>
      </trkpt>
      <trkpt lat="48.65718" lon="7.19982">
        <ele>350.17</ele>
        <time>2020-08-19T18:45:29.000Z</time>
      </trkpt>
      <trkpt lat="48.65726" lon="7.19986">
        <ele>349.06</ele>
        <time>2020-08-19T18:45:30.000Z</time>
      </trkpt>
      <trkpt lat="48.65733" lon="7.19983">
        <ele>345.49</ele>
        <time>2020-08-19T18:45:31.000Z</time>
      </trkpt>
      <trkpt lat="48.65739" lon="7.19976">
        <ele>339.63</ele>
        <time>2020-08-19T18:45:32.000Z</time>
      </trkpt>
      <trkpt lat="48.65744" lon="7.1997">
        <ele>339.8</ele>
        <time>2020-08-19T18:45:33.000Z</time>
      </trkpt>
      <trkpt lat="48.65747" lon="7.19961">
        <ele>339.78</ele>
        <time>2020-08-19T18:45:34.000Z</time>
      </trkpt>
      <trkpt lat="48.65749" lon="7.19951">
        <ele>338.99</ele>
        <time>2020-08-19T18:45:35.000Z</time>
      </trkpt>
      <trkpt lat="48.6575" lon="7.19945">
        <ele>334.31</ele>
        <time>2020-08-19T18:45:36.000Z</time>
      </trkpt>
      <trkpt lat="48.65752" lon="7.19935">
        <ele>332.73</ele>
        <time>2020-08-19T18:45:37.000Z</time>
      </trkpt>
      <trkpt lat="48.65748" lon="7.19933">
        <ele>328.88</ele>
        <time>2020-08-19T18:45:49.000Z</time>
      </trkpt>
      <trkpt lat="48.65752" lon="7.1993">
        <ele>328.56</ele>
        <time>2020-08-19T18:46:57.000Z</time>
      </trkpt>
      <trkpt lat="48.65747" lon="7.1993">
        <ele>346.63</ele>
        <time>2020-08-19T18:47:49.000Z</time>
      </trkpt>
      <trkpt lat="48.65744" lon="7.19936">
        <ele>332.4</ele>
        <time>2020-08-19T18:48:00.000Z</time>
      </trkpt>
      <trkpt lat="48.65744" lon="7.19947">
        <ele>331.07</ele>
        <time>2020-08-19T18:48:02.000Z</time>
      </trkpt>
      <trkpt lat="48.65744" lon="7.19954">
        <ele>328.91</ele>
        <time>2020-08-19T18:48:03.000Z</time>
      </trkpt>
      <trkpt lat="48.65739" lon="7.19965">
        <ele>327.87</ele>
        <time>2020-08-19T18:48:05.000Z</time>
      </trkpt>
      <trkpt lat="48.65736" lon="7.19971">
        <ele>328</ele>
        <time>2020-08-19T18:48:06.000Z</time>
      </trkpt>
      <trkpt lat="48.65732" lon="7.19975">
        <ele>327.34</ele>
        <time>2020-08-19T18:48:07.000Z</time>
      </trkpt>
      <trkpt lat="48.65727" lon="7.19977">
        <ele>327.6</ele>
        <time>2020-08-19T18:48:08.000Z</time>
      </trkpt>
      <trkpt lat="48.6572" lon="7.19976">
        <ele>327.39</ele>
        <time>2020-08-19T18:48:09.000Z</time>
      </trkpt>
      <trkpt lat="48.65715" lon="7.19972">
        <ele>327.96</ele>
        <time>2020-08-19T18:48:10.000Z</time>
      </trkpt>
      <trkpt lat="48.6571" lon="7.19967">
        <ele>328.46</ele>
        <time>2020-08-19T18:48:11.000Z</time>
      </trkpt>
      <trkpt lat="48.65705" lon="7.19963">
        <ele>360.46</ele>
        <time>2020-08-19T18:48:12.000Z</time>
      </trkpt>
      <trkpt lat="48.65699" lon="7.19956">
        <ele>346.12</ele>
        <time>2020-08-19T18:48:13.000Z</time>
      </trkpt>
      <trkpt lat="48.65695" lon="7.1995">
        <ele>341.18</ele>
        <time>2020-08-19T18:48:14.000Z</time>
      </trkpt>
      <trkpt lat="48.6569" lon="7.19944">
        <ele>337.75</ele>
        <time>2020-08-19T18:48:15.000Z</time>
      </trkpt>
      <trkpt lat="48.65685" lon="7.19936">
        <ele>334.04</ele>
        <time>2020-08-19T18:48:16.000Z</time>
      </trkpt>
      <trkpt lat="48.6568" lon="7.1993">
        <ele>333.34</ele>
        <time>2020-08-19T18:48:17.000Z</time>
      </trkpt>
      <trkpt lat="48.65675" lon="7.19923">
        <ele>332.67</ele>
        <time>2020-08-19T18:48:18.000Z</time>
      </trkpt>
      <trkpt lat="48.6567" lon="7.19915">
        <ele>331.94</ele>
        <time>2020-08-19T18:48:19.000Z</time>
      </trkpt>
      <trkpt lat="48.65664" lon="7.19909">
        <ele>329.35</ele>
        <time>2020-08-19T18:48:20.000Z</time>
      </trkpt>
      <trkpt lat="48.65658" lon="7.19903">
        <ele>329.33</ele>
        <time>2020-08-19T18:48:21.000Z</time>
      </trkpt>
      <trkpt lat="48.65653" lon="7.19896">
        <ele>328.21</ele>
        <time>2020-08-19T18:48:22.000Z</time>
      </trkpt>
      <trkpt lat="48.65647" lon="7.19893">
        <ele>328.43</ele>
        <time>2020-08-19T18:48:23.000Z</time>
      </trkpt>
      <trkpt lat="48.6564" lon="7.19891">
        <ele>326.55</ele>
        <time>2020-08-19T18:48:24.000Z</time>
      </trkpt>
      <trkpt lat="48.65633" lon="7.19889">
        <ele>326.21</ele>
        <time>2020-08-19T18:48:25.000Z</time>
      </trkpt>
      <trkpt lat="48.65626" lon="7.19888">
        <ele>325.87</ele>
        <time>2020-08-19T18:48:26.000Z</time>
      </trkpt>
      <trkpt lat="48.6562" lon="7.19885">
        <ele>322.68</ele>
        <time>2020-08-19T18:48:27.000Z</time>
      </trkpt>
      <trkpt lat="48.65612" lon="7.19886">
        <ele>322.77</ele>
        <time>2020-08-19T18:48:28.000Z</time>
      </trkpt>
      <trkpt lat="48.65605" lon="7.19888">
        <ele>322.84</ele>
        <time>2020-08-19T18:48:29.000Z</time>
      </trkpt>
      <trkpt lat="48.65598" lon="7.19892">
        <ele>323.02</ele>
        <time>2020-08-19T18:48:30.000Z</time>
      </trkpt>
      <trkpt lat="48.65586" lon="7.19896">
        <ele>323.63</ele>
        <time>2020-08-19T18:48:32.000Z</time>
      </trkpt>
      <trkpt lat="48.65578" lon="7.19901">
        <ele>324.64</ele>
        <time>2020-08-19T18:48:33.000Z</time>
      </trkpt>
      <trkpt lat="48.65572" lon="7.19906">
        <ele>326.11</ele>
        <time>2020-08-19T18:48:34.000Z</time>
      </trkpt>
      <trkpt lat="48.65566" lon="7.19913">
        <ele>326.82</ele>
        <time>2020-08-19T18:48:35.000Z</time>
      </trkpt>
      <trkpt lat="48.65561" lon="7.1992">
        <ele>325.31</ele>
        <time>2020-08-19T18:48:36.000Z</time>
      </trkpt>
      <trkpt lat="48.65558" lon="7.19933">
        <ele>328.18</ele>
        <time>2020-08-19T18:48:37.000Z</time>
      </trkpt>
      <trkpt lat="48.65555" lon="7.19943">
        <ele>328.69</ele>
        <time>2020-08-19T18:48:38.000Z</time>
      </trkpt>
      <trkpt lat="48.65553" lon="7.19954">
        <ele>327.89</ele>
        <time>2020-08-19T18:48:39.000Z</time>
      </trkpt>
      <trkpt lat="48.65552" lon="7.19964">
        <ele>328.32</ele>
        <time>2020-08-19T18:48:40.000Z</time>
      </trkpt>
      <trkpt lat="48.65554" lon="7.19975">
        <ele>327.32</ele>
        <time>2020-08-19T18:48:41.000Z</time>
      </trkpt>
      <trkpt lat="48.65557" lon="7.19988">
        <ele>327.61</ele>
        <time>2020-08-19T18:48:42.000Z</time>
      </trkpt>
      <trkpt lat="48.6556" lon="7.19999">
        <ele>327.92</ele>
        <time>2020-08-19T18:48:43.000Z</time>
      </trkpt>
      <trkpt lat="48.65565" lon="7.20008">
        <ele>328.96</ele>
        <time>2020-08-19T18:48:44.000Z</time>
      </trkpt>
      <trkpt lat="48.65568" lon="7.20014">
        <ele>326.62</ele>
        <time>2020-08-19T18:48:45.000Z</time>
      </trkpt>
      <trkpt lat="48.65574" lon="7.20025">
        <ele>327.68</ele>
        <time>2020-08-19T18:48:46.000Z</time>
      </trkpt>
      <trkpt lat="48.65579" lon="7.20034">
        <ele>328.05</ele>
        <time>2020-08-19T18:48:47.000Z</time>
      </trkpt>
      <trkpt lat="48.65585" lon="7.20041">
        <ele>328.04</ele>
        <time>2020-08-19T18:48:48.000Z</time>
      </trkpt>
      <trkpt lat="48.65592" lon="7.20047">
        <ele>329.39</ele>
        <time>2020-08-19T18:48:49.000Z</time>
      </trkpt>
      <trkpt lat="48.65598" lon="7.20053">
        <ele>328.21</ele>
        <time>2020-08-19T18:48:50.000Z</time>
      </trkpt>
      <trkpt lat="48.65603" lon="7.20061">
        <ele>326.37</ele>
        <time>2020-08-19T18:48:51.000Z</time>
      </trkpt>
      <trkpt lat="48.65608" lon="7.20067">
        <ele>325.69</ele>
        <time>2020-08-19T18:48:52.000Z</time>
      </trkpt>
      <trkpt lat="48.65614" lon="7.20072">
        <ele>326.48</ele>
        <time>2020-08-19T18:48:53.000Z</time>
      </trkpt>
      <trkpt lat="48.6562" lon="7.2008">
        <ele>327.17</ele>
        <time>2020-08-19T18:48:54.000Z</time>
      </trkpt>
      <trkpt lat="48.65625" lon="7.2009">
        <ele>326.58</ele>
        <time>2020-08-19T18:48:55.000Z</time>
      </trkpt>
      <trkpt lat="48.65626" lon="7.20099">
        <ele>329.13</ele>
        <time>2020-08-19T18:48:56.000Z</time>
      </trkpt>
      <trkpt lat="48.65627" lon="7.20111">
        <ele>327.78</ele>
        <time>2020-08-19T18:48:57.000Z</time>
      </trkpt>
      <trkpt lat="48.65627" lon="7.20122">
        <ele>328.71</ele>
        <time>2020-08-19T18:48:58.000Z</time>
      </trkpt>
      <trkpt lat="48.65626" lon="7.20133">
        <ele>329.87</ele>
        <time>2020-08-19T18:48:59.000Z</time>
      </trkpt>
      <trkpt lat="48.65625" lon="7.20144">
        <ele>329.22</ele>
        <time>2020-08-19T18:49:00.000Z</time>
      </trkpt>
      <trkpt lat="48.65625" lon="7.20155">
        <ele>332.08</ele>
        <time>2020-08-19T18:49:01.000Z</time>
      </trkpt>
      <trkpt lat="48.65622" lon="7.20165">
        <ele>331.11</ele>
        <time>2020-08-19T18:49:02.000Z</time>
      </trkpt>
      <trkpt lat="48.65618" lon="7.20174">
        <ele>330.09</ele>
        <time>2020-08-19T18:49:03.000Z</time>
      </trkpt>
      <trkpt lat="48.65614" lon="7.20182">
        <ele>329.77</ele>
        <time>2020-08-19T18:49:04.000Z</time>
      </trkpt>
      <trkpt lat="48.65612" lon="7.20189">
        <ele>328.55</ele>
        <time>2020-08-19T18:49:05.000Z</time>
      </trkpt>
      <trkpt lat="48.65608" lon="7.20196">
        <ele>328.66</ele>
        <time>2020-08-19T18:49:06.000Z</time>
      </trkpt>
      <trkpt lat="48.65603" lon="7.20202">
        <ele>327.74</ele>
        <time>2020-08-19T18:49:07.000Z</time>
      </trkpt>
      <trkpt lat="48.65583" lon="7.20224">
        <ele>331.21</ele>
        <time>2020-08-19T18:49:12.000Z</time>
      </trkpt>
      <trkpt lat="48.65573" lon="7.20218">
        <ele>334.38</ele>
        <time>2020-08-19T18:49:23.000Z</time>
      </trkpt>
      <trkpt lat="48.6557" lon="7.20209">
        <ele>337.06</ele>
        <time>2020-08-19T18:49:28.000Z</time>
      </trkpt>
      <trkpt lat="48.65569" lon="7.20202">
        <ele>337.36</ele>
        <time>2020-08-19T18:49:36.000Z</time>
      </trkpt>
      <trkpt lat="48.65569" lon="7.20194">
        <ele>338.36</ele>
        <time>2020-08-19T18:49:41.000Z</time>
      </trkpt>
      <trkpt lat="48.65568" lon="7.20187">
        <ele>340.1</ele>
        <time>2020-08-19T18:49:47.000Z</time>
      </trkpt>
      <trkpt lat="48.65569" lon="7.20179">
        <ele>343.54</ele>
        <time>2020-08-19T18:49:51.000Z</time>
      </trkpt>
      <trkpt lat="48.65569" lon="7.2017">
        <ele>342.88</ele>
        <time>2020-08-19T18:49:55.000Z</time>
      </trkpt>
      <trkpt lat="48.6557" lon="7.20163">
        <ele>347.3</ele>
        <time>2020-08-19T18:49:59.000Z</time>
      </trkpt>
      <trkpt lat="48.6557" lon="7.20155">
        <ele>349.5</ele>
        <time>2020-08-19T18:50:03.000Z</time>
      </trkpt>
      <trkpt lat="48.65568" lon="7.20148">
        <ele>350.16</ele>
        <time>2020-08-19T18:50:07.000Z</time>
      </trkpt>
      <trkpt lat="48.65566" lon="7.20142">
        <ele>351.97</ele>
        <time>2020-08-19T18:50:10.000Z</time>
      </trkpt>
      <trkpt lat="48.65563" lon="7.20135">
        <ele>350.4</ele>
        <time>2020-08-19T18:50:13.000Z</time>
      </trkpt>
      <trkpt lat="48.65559" lon="7.20128">
        <ele>365.22</ele>
        <time>2020-08-19T18:50:28.000Z</time>
      </trkpt>
      <trkpt lat="48.65555" lon="7.20122">
        <ele>357.79</ele>
        <time>2020-08-19T18:50:33.000Z</time>
      </trkpt>
      <trkpt lat="48.65551" lon="7.20114">
        <ele>356.4</ele>
        <time>2020-08-19T18:50:38.000Z</time>
      </trkpt>
      <trkpt lat="48.65548" lon="7.20109">
        <ele>353.19</ele>
        <time>2020-08-19T18:50:43.000Z</time>
      </trkpt>
      <trkpt lat="48.65545" lon="7.20104">
        <ele>351.98</ele>
        <time>2020-08-19T18:50:47.000Z</time>
      </trkpt>
      <trkpt lat="48.65541" lon="7.20098">
        <ele>352.94</ele>
        <time>2020-08-19T18:50:50.000Z</time>
      </trkpt>
      <trkpt lat="48.65541" lon="7.20091">
        <ele>357.28</ele>
        <time>2020-08-19T18:51:01.000Z</time>
      </trkpt>
      <trkpt lat="48.65536" lon="7.20085">
        <ele>357.38</ele>
        <time>2020-08-19T18:51:09.000Z</time>
      </trkpt>
      <trkpt lat="48.65534" lon="7.20079">
        <ele>354.02</ele>
        <time>2020-08-19T18:51:15.000Z</time>
      </trkpt>
      <trkpt lat="48.65529" lon="7.20075">
        <ele>353.82</ele>
        <time>2020-08-19T18:51:19.000Z</time>
      </trkpt>
      <trkpt lat="48.65533" lon="7.20082">
        <ele>354.32</ele>
        <time>2020-08-19T18:51:48.000Z</time>
      </trkpt>
      <trkpt lat="48.65543" lon="7.20093">
        <ele>352.56</ele>
        <time>2020-08-19T18:51:51.000Z</time>
      </trkpt>
      <trkpt lat="48.65547" lon="7.20099">
        <ele>352.25</ele>
        <time>2020-08-19T18:51:52.000Z</time>
      </trkpt>
      <trkpt lat="48.65558" lon="7.20114">
        <ele>351.31</ele>
        <time>2020-08-19T18:51:55.000Z</time>
      </trkpt>
      <trkpt lat="48.65562" lon="7.20119">
        <ele>351.14</ele>
        <time>2020-08-19T18:51:56.000Z</time>
      </trkpt>
      <trkpt lat="48.6557" lon="7.20143">
        <ele>349.59</ele>
        <time>2020-08-19T18:52:00.000Z</time>
      </trkpt>
      <trkpt lat="48.65571" lon="7.20154">
        <ele>349.43</ele>
        <time>2020-08-19T18:52:02.000Z</time>
      </trkpt>
      <trkpt lat="48.65569" lon="7.20161">
        <ele>347.64</ele>
        <time>2020-08-19T18:52:03.000Z</time>
      </trkpt>
      <trkpt lat="48.65569" lon="7.20168">
        <ele>345.97</ele>
        <time>2020-08-19T18:52:05.000Z</time>
      </trkpt>
      <trkpt lat="48.6557" lon="7.20175">
        <ele>344.15</ele>
        <time>2020-08-19T18:52:07.000Z</time>
      </trkpt>
      <trkpt lat="48.65571" lon="7.20184">
        <ele>344.01</ele>
        <time>2020-08-19T18:52:10.000Z</time>
      </trkpt>
      <trkpt lat="48.6557" lon="7.20191">
        <ele>341.31</ele>
        <time>2020-08-19T18:52:17.000Z</time>
      </trkpt>
      <trkpt lat="48.65568" lon="7.20199">
        <ele>341.21</ele>
        <time>2020-08-19T18:52:21.000Z</time>
      </trkpt>
      <trkpt lat="48.65566" lon="7.20206">
        <ele>344.21</ele>
        <time>2020-08-19T18:52:41.000Z</time>
      </trkpt>
      <trkpt lat="48.65568" lon="7.20213">
        <ele>341.16</ele>
        <time>2020-08-19T18:53:13.000Z</time>
      </trkpt>
      <trkpt lat="48.65571" lon="7.2022">
        <ele>340.06</ele>
        <time>2020-08-19T18:53:15.000Z</time>
      </trkpt>
      <trkpt lat="48.65584" lon="7.20209">
        <ele>340.67</ele>
        <time>2020-08-19T18:53:19.000Z</time>
      </trkpt>
      <trkpt lat="48.656" lon="7.20192">
        <ele>337.33</ele>
        <time>2020-08-19T18:53:23.000Z</time>
      </trkpt>
      <trkpt lat="48.65605" lon="7.20186">
        <ele>338.12</ele>
        <time>2020-08-19T18:53:24.000Z</time>
      </trkpt>
      <trkpt lat="48.65609" lon="7.20179">
        <ele>338.24</ele>
        <time>2020-08-19T18:53:25.000Z</time>
      </trkpt>
      <trkpt lat="48.65613" lon="7.2017">
        <ele>337.36</ele>
        <time>2020-08-19T18:53:26.000Z</time>
      </trkpt>
      <trkpt lat="48.65618" lon="7.20161">
        <ele>337.68</ele>
        <time>2020-08-19T18:53:27.000Z</time>
      </trkpt>
      <trkpt lat="48.65621" lon="7.2015">
        <ele>337.72</ele>
        <time>2020-08-19T18:53:28.000Z</time>
      </trkpt>
      <trkpt lat="48.65622" lon="7.20139">
        <ele>335.41</ele>
        <time>2020-08-19T18:53:29.000Z</time>
      </trkpt>
      <trkpt lat="48.65623" lon="7.20128">
        <ele>335.67</ele>
        <time>2020-08-19T18:53:30.000Z</time>
      </trkpt>
      <trkpt lat="48.65623" lon="7.20116">
        <ele>335.34</ele>
        <time>2020-08-19T18:53:31.000Z</time>
      </trkpt>
      <trkpt lat="48.65623" lon="7.20106">
        <ele>333.31</ele>
        <time>2020-08-19T18:53:32.000Z</time>
      </trkpt>
      <trkpt lat="48.65621" lon="7.20093">
        <ele>332.12</ele>
        <time>2020-08-19T18:53:33.000Z</time>
      </trkpt>
      <trkpt lat="48.65617" lon="7.20082">
        <ele>331.21</ele>
        <time>2020-08-19T18:53:34.000Z</time>
      </trkpt>
      <trkpt lat="48.65613" lon="7.20073">
        <ele>331.7</ele>
        <time>2020-08-19T18:53:35.000Z</time>
      </trkpt>
      <trkpt lat="48.65604" lon="7.20068">
        <ele>330.92</ele>
        <time>2020-08-19T18:53:36.000Z</time>
      </trkpt>
      <trkpt lat="48.65594" lon="7.20064">
        <ele>330.27</ele>
        <time>2020-08-19T18:53:37.000Z</time>
      </trkpt>
      <trkpt lat="48.65594" lon="7.20056">
        <ele>330.48</ele>
        <time>2020-08-19T18:53:38.000Z</time>
      </trkpt>
      <trkpt lat="48.65587" lon="7.20049">
        <ele>330.5</ele>
        <time>2020-08-19T18:53:39.000Z</time>
      </trkpt>
      <trkpt lat="48.6558" lon="7.20044">
        <ele>329</ele>
        <time>2020-08-19T18:53:40.000Z</time>
      </trkpt>
      <trkpt lat="48.65577" lon="7.20033">
        <ele>329.92</ele>
        <time>2020-08-19T18:53:41.000Z</time>
      </trkpt>
      <trkpt lat="48.65572" lon="7.20028">
        <ele>329.81</ele>
        <time>2020-08-19T18:53:42.000Z</time>
      </trkpt>
      <trkpt lat="48.65567" lon="7.20025">
        <ele>331.07</ele>
        <time>2020-08-19T18:54:36.000Z</time>
      </trkpt>
      <trkpt lat="48.65564" lon="7.20018">
        <ele>331.46</ele>
        <time>2020-08-19T18:54:39.000Z</time>
      </trkpt>
      <trkpt lat="48.65557" lon="7.20007">
        <ele>333.08</ele>
        <time>2020-08-19T18:54:41.000Z</time>
      </trkpt>
      <trkpt lat="48.65554" lon="7.2">
        <ele>332.57</ele>
        <time>2020-08-19T18:54:42.000Z</time>
      </trkpt>
      <trkpt lat="48.65551" lon="7.19992">
        <ele>332.24</ele>
        <time>2020-08-19T18:54:43.000Z</time>
      </trkpt>
      <trkpt lat="48.65553" lon="7.19981">
        <ele>333.55</ele>
        <time>2020-08-19T18:54:44.000Z</time>
      </trkpt>
      <trkpt lat="48.65553" lon="7.19972">
        <ele>333.72</ele>
        <time>2020-08-19T18:54:45.000Z</time>
      </trkpt>
      <trkpt lat="48.65555" lon="7.1996">
        <ele>334.53</ele>
        <time>2020-08-19T18:54:46.000Z</time>
      </trkpt>
      <trkpt lat="48.65557" lon="7.19949">
        <ele>334.36</ele>
        <time>2020-08-19T18:54:47.000Z</time>
      </trkpt>
      <trkpt lat="48.65562" lon="7.19941">
        <ele>333.74</ele>
        <time>2020-08-19T18:54:48.000Z</time>
      </trkpt>
      <trkpt lat="48.65566" lon="7.19932">
        <ele>334.4</ele>
        <time>2020-08-19T18:54:49.000Z</time>
      </trkpt>
      <trkpt lat="48.65571" lon="7.19923">
        <ele>334.62</ele>
        <time>2020-08-19T18:54:50.000Z</time>
      </trkpt>
      <trkpt lat="48.65577" lon="7.19916">
        <ele>334.61</ele>
        <time>2020-08-19T18:54:51.000Z</time>
      </trkpt>
      <trkpt lat="48.65581" lon="7.19912">
        <ele>334.86</ele>
        <time>2020-08-19T18:54:52.000Z</time>
      </trkpt>
      <trkpt lat="48.6559" lon="7.19902">
        <ele>334.49</ele>
        <time>2020-08-19T18:54:53.000Z</time>
      </trkpt>
      <trkpt lat="48.65598" lon="7.19897">
        <ele>333.61</ele>
        <time>2020-08-19T18:54:54.000Z</time>
      </trkpt>
      <trkpt lat="48.65607" lon="7.19894">
        <ele>332.39</ele>
        <time>2020-08-19T18:54:55.000Z</time>
      </trkpt>
      <trkpt lat="48.65615" lon="7.19891">
        <ele>332.97</ele>
        <time>2020-08-19T18:54:56.000Z</time>
      </trkpt>
      <trkpt lat="48.65623" lon="7.19892">
        <ele>332.78</ele>
        <time>2020-08-19T18:54:57.000Z</time>
      </trkpt>
      <trkpt lat="48.65632" lon="7.19892">
        <ele>333.09</ele>
        <time>2020-08-19T18:54:58.000Z</time>
      </trkpt>
      <trkpt lat="48.65641" lon="7.19893">
        <ele>333.05</ele>
        <time>2020-08-19T18:54:59.000Z</time>
      </trkpt>
      <trkpt lat="48.65649" lon="7.19897">
        <ele>332.55</ele>
        <time>2020-08-19T18:55:00.000Z</time>
      </trkpt>
      <trkpt lat="48.65657" lon="7.19902">
        <ele>331.42</ele>
        <time>2020-08-19T18:55:01.000Z</time>
      </trkpt>
      <trkpt lat="48.65663" lon="7.1991">
        <ele>329.08</ele>
        <time>2020-08-19T18:55:02.000Z</time>
      </trkpt>
      <trkpt lat="48.6567" lon="7.19918">
        <ele>329.19</ele>
        <time>2020-08-19T18:55:03.000Z</time>
      </trkpt>
      <trkpt lat="48.65676" lon="7.19926">
        <ele>328.36</ele>
        <time>2020-08-19T18:55:04.000Z</time>
      </trkpt>
      <trkpt lat="48.65683" lon="7.19935">
        <ele>328.64</ele>
        <time>2020-08-19T18:55:05.000Z</time>
      </trkpt>
      <trkpt lat="48.65689" lon="7.19946">
        <ele>328.57</ele>
        <time>2020-08-19T18:55:06.000Z</time>
      </trkpt>
      <trkpt lat="48.65694" lon="7.19958">
        <ele>328.76</ele>
        <time>2020-08-19T18:55:07.000Z</time>
      </trkpt>
      <trkpt lat="48.65701" lon="7.19964">
        <ele>329.25</ele>
        <time>2020-08-19T18:55:08.000Z</time>
      </trkpt>
      <trkpt lat="48.65706" lon="7.19972">
        <ele>328.96</ele>
        <time>2020-08-19T18:55:09.000Z</time>
      </trkpt>
      <trkpt lat="48.65714" lon="7.19978">
        <ele>329.62</ele>
        <time>2020-08-19T18:55:10.000Z</time>
      </trkpt>
      <trkpt lat="48.65722" lon="7.1998">
        <ele>327.47</ele>
        <time>2020-08-19T18:55:11.000Z</time>
      </trkpt>
      <trkpt lat="48.65729" lon="7.19983">
        <ele>326.36</ele>
        <time>2020-08-19T18:55:12.000Z</time>
      </trkpt>
      <trkpt lat="48.65735" lon="7.19981">
        <ele>326.24</ele>
        <time>2020-08-19T18:55:13.000Z</time>
      </trkpt>
      <trkpt lat="48.6574" lon="7.19973">
        <ele>325.39</ele>
        <time>2020-08-19T18:55:14.000Z</time>
      </trkpt>
      <trkpt lat="48.65743" lon="7.19963">
        <ele>327.07</ele>
        <time>2020-08-19T18:55:15.000Z</time>
      </trkpt>
      <trkpt lat="48.65746" lon="7.19953">
        <ele>325.85</ele>
        <time>2020-08-19T18:55:16.000Z</time>
      </trkpt>
      <trkpt lat="48.65747" lon="7.19944">
        <ele>323.77</ele>
        <time>2020-08-19T18:55:17.000Z</time>
      </trkpt>
      <trkpt lat="48.65748" lon="7.19932">
        <ele>322.39</ele>
        <time>2020-08-19T18:55:18.000Z</time>
      </trkpt>
      <trkpt lat="48.65752" lon="7.19917">
        <ele>322.65</ele>
        <time>2020-08-19T18:55:19.000Z</time>
      </trkpt>
      <trkpt lat="48.65753" lon="7.19903">
        <ele>320.73</ele>
        <time>2020-08-19T18:55:20.000Z</time>
      </trkpt>
      <trkpt lat="48.65754" lon="7.19891">
        <ele>321.9</ele>
        <time>2020-08-19T18:55:21.000Z</time>
      </trkpt>
      <trkpt lat="48.65755" lon="7.19877">
        <ele>321.62</ele>
        <time>2020-08-19T18:55:22.000Z</time>
      </trkpt>
      <trkpt lat="48.65758" lon="7.19866">
        <ele>319.64</ele>
        <time>2020-08-19T18:55:23.000Z</time>
      </trkpt>
      <trkpt lat="48.65761" lon="7.19854">
        <ele>321.05</ele>
        <time>2020-08-19T18:55:24.000Z</time>
      </trkpt>
      <trkpt lat="48.65764" lon="7.19842">
        <ele>317.05</ele>
        <time>2020-08-19T18:55:25.000Z</time>
      </trkpt>
      <trkpt lat="48.65768" lon="7.1983">
        <ele>317.64</ele>
        <time>2020-08-19T18:55:26.000Z</time>
      </trkpt>
      <trkpt lat="48.6577" lon="7.19818">
        <ele>318.41</ele>
        <time>2020-08-19T18:55:27.000Z</time>
      </trkpt>
      <trkpt lat="48.65773" lon="7.19806">
        <ele>319.15</ele>
        <time>2020-08-19T18:55:28.000Z</time>
      </trkpt>
      <trkpt lat="48.65776" lon="7.19793">
        <ele>319.3</ele>
        <time>2020-08-19T18:55:29.000Z</time>
      </trkpt>
      <trkpt lat="48.65779" lon="7.19782">
        <ele>318.82</ele>
        <time>2020-08-19T18:55:30.000Z</time>
      </trkpt>
      <trkpt lat="48.65783" lon="7.19771">
        <ele>319.85</ele>
        <time>2020-08-19T18:55:31.000Z</time>
      </trkpt>
      <trkpt lat="48.65789" lon="7.19761">
        <ele>319.56</ele>
        <time>2020-08-19T18:55:32.000Z</time>
      </trkpt>
      <trkpt lat="48.65795" lon="7.19752">
        <ele>320.25</ele>
        <time>2020-08-19T18:55:33.000Z</time>
      </trkpt>
      <trkpt lat="48.65803" lon="7.19742">
        <ele>320.47</ele>
        <time>2020-08-19T18:55:34.000Z</time>
      </trkpt>
      <trkpt lat="48.65809" lon="7.19734">
        <ele>319.74</ele>
        <time>2020-08-19T18:55:35.000Z</time>
      </trkpt>
      <trkpt lat="48.65818" lon="7.19727">
        <ele>318.69</ele>
        <time>2020-08-19T18:55:36.000Z</time>
      </trkpt>
      <trkpt lat="48.65825" lon="7.19721">
        <ele>319.8</ele>
        <time>2020-08-19T18:55:37.000Z</time>
      </trkpt>
      <trkpt lat="48.65833" lon="7.19717">
        <ele>319.83</ele>
        <time>2020-08-19T18:55:38.000Z</time>
      </trkpt>
      <trkpt lat="48.65841" lon="7.1971">
        <ele>320.44</ele>
        <time>2020-08-19T18:55:39.000Z</time>
      </trkpt>
      <trkpt lat="48.65849" lon="7.19708">
        <ele>320.47</ele>
        <time>2020-08-19T18:55:40.000Z</time>
      </trkpt>
      <trkpt lat="48.65857" lon="7.19705">
        <ele>318.78</ele>
        <time>2020-08-19T18:55:41.000Z</time>
      </trkpt>
      <trkpt lat="48.65865" lon="7.19704">
        <ele>319.84</ele>
        <time>2020-08-19T18:55:42.000Z</time>
      </trkpt>
      <trkpt lat="48.65874" lon="7.19704">
        <ele>320.66</ele>
        <time>2020-08-19T18:55:43.000Z</time>
      </trkpt>
      <trkpt lat="48.65882" lon="7.19704">
        <ele>321.08</ele>
        <time>2020-08-19T18:55:44.000Z</time>
      </trkpt>
      <trkpt lat="48.65892" lon="7.19705">
        <ele>321.06</ele>
        <time>2020-08-19T18:55:45.000Z</time>
      </trkpt>
      <trkpt lat="48.659" lon="7.19705">
        <ele>320.51</ele>
        <time>2020-08-19T18:55:46.000Z</time>
      </trkpt>
      <trkpt lat="48.65911" lon="7.197">
        <ele>320.72</ele>
        <time>2020-08-19T18:55:47.000Z</time>
      </trkpt>
      <trkpt lat="48.6592" lon="7.19702">
        <ele>322.57</ele>
        <time>2020-08-19T18:55:48.000Z</time>
      </trkpt>
      <trkpt lat="48.6593" lon="7.19704">
        <ele>323.92</ele>
        <time>2020-08-19T18:55:49.000Z</time>
      </trkpt>
      <trkpt lat="48.65938" lon="7.19705">
        <ele>324.27</ele>
        <time>2020-08-19T18:55:50.000Z</time>
      </trkpt>
      <trkpt lat="48.65947" lon="7.19706">
        <ele>323.58</ele>
        <time>2020-08-19T18:55:51.000Z</time>
      </trkpt>
      <trkpt lat="48.65954" lon="7.19709">
        <ele>446.53</ele>
        <time>2020-08-19T18:55:52.000Z</time>
      </trkpt>
      <trkpt lat="48.65961" lon="7.19715">
        <ele>417.54</ele>
        <time>2020-08-19T18:55:53.000Z</time>
      </trkpt>
      <trkpt lat="48.65965" lon="7.19725">
        <ele>397.51</ele>
        <time>2020-08-19T18:55:54.000Z</time>
      </trkpt>
      <trkpt lat="48.65969" lon="7.19736">
        <ele>378.68</ele>
        <time>2020-08-19T18:55:55.000Z</time>
      </trkpt>
      <trkpt lat="48.65973" lon="7.19748">
        <ele>370.6</ele>
        <time>2020-08-19T18:55:56.000Z</time>
      </trkpt>
      <trkpt lat="48.65977" lon="7.19759">
        <ele>351.11</ele>
        <time>2020-08-19T18:55:57.000Z</time>
      </trkpt>
      <trkpt lat="48.65981" lon="7.1977">
        <ele>341.58</ele>
        <time>2020-08-19T18:55:58.000Z</time>
      </trkpt>
      <trkpt lat="48.65983" lon="7.19781">
        <ele>334.17</ele>
        <time>2020-08-19T18:55:59.000Z</time>
      </trkpt>
      <trkpt lat="48.65988" lon="7.19793">
        <ele>331.16</ele>
        <time>2020-08-19T18:56:00.000Z</time>
      </trkpt>
      <trkpt lat="48.65993" lon="7.19805">
        <ele>328.05</ele>
        <time>2020-08-19T18:56:01.000Z</time>
      </trkpt>
      <trkpt lat="48.65996" lon="7.19816">
        <ele>327.06</ele>
        <time>2020-08-19T18:56:02.000Z</time>
      </trkpt>
      <trkpt lat="48.66" lon="7.19827">
        <ele>325.78</ele>
        <time>2020-08-19T18:56:03.000Z</time>
      </trkpt>
      <trkpt lat="48.66004" lon="7.19839">
        <ele>323.78</ele>
        <time>2020-08-19T18:56:04.000Z</time>
      </trkpt>
      <trkpt lat="48.66008" lon="7.19851">
        <ele>323.37</ele>
        <time>2020-08-19T18:56:05.000Z</time>
      </trkpt>
      <trkpt lat="48.66013" lon="7.19862">
        <ele>321.08</ele>
        <time>2020-08-19T18:56:06.000Z</time>
      </trkpt>
      <trkpt lat="48.66018" lon="7.19873">
        <ele>321.32</ele>
        <time>2020-08-19T18:56:07.000Z</time>
      </trkpt>
      <trkpt lat="48.66023" lon="7.19882">
        <ele>321.21</ele>
        <time>2020-08-19T18:56:08.000Z</time>
      </trkpt>
      <trkpt lat="48.6603" lon="7.19892">
        <ele>321.15</ele>
        <time>2020-08-19T18:56:09.000Z</time>
      </trkpt>
      <trkpt lat="48.66039" lon="7.19896">
        <ele>321.43</ele>
        <time>2020-08-19T18:56:10.000Z</time>
      </trkpt>
      <trkpt lat="48.66046" lon="7.19903">
        <ele>322.34</ele>
        <time>2020-08-19T18:56:11.000Z</time>
      </trkpt>
      <trkpt lat="48.66055" lon="7.19906">
        <ele>321.66</ele>
        <time>2020-08-19T18:56:12.000Z</time>
      </trkpt>
      <trkpt lat="48.66064" lon="7.19909">
        <ele>321.94</ele>
        <time>2020-08-19T18:56:13.000Z</time>
      </trkpt>
      <trkpt lat="48.66072" lon="7.1991">
        <ele>321.97</ele>
        <time>2020-08-19T18:56:14.000Z</time>
      </trkpt>
      <trkpt lat="48.66081" lon="7.19914">
        <ele>321.56</ele>
        <time>2020-08-19T18:56:15.000Z</time>
      </trkpt>
      <trkpt lat="48.66089" lon="7.19915">
        <ele>322.2</ele>
        <time>2020-08-19T18:56:16.000Z</time>
      </trkpt>
      <trkpt lat="48.66098" lon="7.19917">
        <ele>321.56</ele>
        <time>2020-08-19T18:56:17.000Z</time>
      </trkpt>
      <trkpt lat="48.66106" lon="7.19919">
        <ele>321.82</ele>
        <time>2020-08-19T18:56:18.000Z</time>
      </trkpt>
      <trkpt lat="48.66115" lon="7.1992">
        <ele>322.57</ele>
        <time>2020-08-19T18:56:19.000Z</time>
      </trkpt>
      <trkpt lat="48.66122" lon="7.19921">
        <ele>323.11</ele>
        <time>2020-08-19T18:56:20.000Z</time>
      </trkpt>
      <trkpt lat="48.66129" lon="7.19922">
        <ele>322.65</ele>
        <time>2020-08-19T18:56:21.000Z</time>
      </trkpt>
      <trkpt lat="48.66138" lon="7.19919">
        <ele>322.98</ele>
        <time>2020-08-19T18:56:22.000Z</time>
      </trkpt>
      <trkpt lat="48.66147" lon="7.19915">
        <ele>322.86</ele>
        <time>2020-08-19T18:56:23.000Z</time>
      </trkpt>
      <trkpt lat="48.66156" lon="7.19911">
        <ele>322.63</ele>
        <time>2020-08-19T18:56:24.000Z</time>
      </trkpt>
      <trkpt lat="48.66165" lon="7.19907">
        <ele>322.15</ele>
        <time>2020-08-19T18:56:25.000Z</time>
      </trkpt>
      <trkpt lat="48.66174" lon="7.19902">
        <ele>323.16</ele>
        <time>2020-08-19T18:56:26.000Z</time>
      </trkpt>
      <trkpt lat="48.66182" lon="7.19894">
        <ele>324.22</ele>
        <time>2020-08-19T18:56:27.000Z</time>
      </trkpt>
      <trkpt lat="48.6619" lon="7.19885">
        <ele>324.2</ele>
        <time>2020-08-19T18:56:28.000Z</time>
      </trkpt>
      <trkpt lat="48.66196" lon="7.19878">
        <ele>323.36</ele>
        <time>2020-08-19T18:56:29.000Z</time>
      </trkpt>
      <trkpt lat="48.66203" lon="7.1987">
        <ele>323.48</ele>
        <time>2020-08-19T18:56:30.000Z</time>
      </trkpt>
      <trkpt lat="48.66208" lon="7.19859">
        <ele>323.54</ele>
        <time>2020-08-19T18:56:31.000Z</time>
      </trkpt>
      <trkpt lat="48.66213" lon="7.19846">
        <ele>322.4</ele>
        <time>2020-08-19T18:56:32.000Z</time>
      </trkpt>
      <trkpt lat="48.66217" lon="7.19832">
        <ele>322.84</ele>
        <time>2020-08-19T18:56:33.000Z</time>
      </trkpt>
      <trkpt lat="48.66219" lon="7.19819">
        <ele>321.79</ele>
        <time>2020-08-19T18:56:34.000Z</time>
      </trkpt>
      <trkpt lat="48.66222" lon="7.19806">
        <ele>322.23</ele>
        <time>2020-08-19T18:56:35.000Z</time>
      </trkpt>
      <trkpt lat="48.66223" lon="7.19793">
        <ele>322.07</ele>
        <time>2020-08-19T18:56:36.000Z</time>
      </trkpt>
      <trkpt lat="48.66224" lon="7.19781">
        <ele>321.94</ele>
        <time>2020-08-19T18:56:37.000Z</time>
      </trkpt>
      <trkpt lat="48.66226" lon="7.19768">
        <ele>320.86</ele>
        <time>2020-08-19T18:56:38.000Z</time>
      </trkpt>
      <trkpt lat="48.66226" lon="7.19756">
        <ele>319.63</ele>
        <time>2020-08-19T18:56:39.000Z</time>
      </trkpt>
      <trkpt lat="48.66226" lon="7.19742">
        <ele>320.06</ele>
        <time>2020-08-19T18:56:40.000Z</time>
      </trkpt>
      <trkpt lat="48.66225" lon="7.19728">
        <ele>319.03</ele>
        <time>2020-08-19T18:56:41.000Z</time>
      </trkpt>
      <trkpt lat="48.66224" lon="7.19713">
        <ele>317.52</ele>
        <time>2020-08-19T18:56:42.000Z</time>
      </trkpt>
      <trkpt lat="48.66224" lon="7.197">
        <ele>316.81</ele>
        <time>2020-08-19T18:56:43.000Z</time>
      </trkpt>
      <trkpt lat="48.66225" lon="7.19686">
        <ele>319.06</ele>
        <time>2020-08-19T18:56:44.000Z</time>
      </trkpt>
      <trkpt lat="48.66226" lon="7.19672">
        <ele>319.07</ele>
        <time>2020-08-19T18:56:45.000Z</time>
      </trkpt>
      <trkpt lat="48.66227" lon="7.19658">
        <ele>318.68</ele>
        <time>2020-08-19T18:56:46.000Z</time>
      </trkpt>
      <trkpt lat="48.66228" lon="7.19646">
        <ele>318.96</ele>
        <time>2020-08-19T18:56:47.000Z</time>
      </trkpt>
      <trkpt lat="48.66227" lon="7.19634">
        <ele>315.8</ele>
        <time>2020-08-19T18:56:48.000Z</time>
      </trkpt>
      <trkpt lat="48.66229" lon="7.19622">
        <ele>316.82</ele>
        <time>2020-08-19T18:56:49.000Z</time>
      </trkpt>
      <trkpt lat="48.66231" lon="7.19609">
        <ele>315.88</ele>
        <time>2020-08-19T18:56:50.000Z</time>
      </trkpt>
      <trkpt lat="48.66233" lon="7.19597">
        <ele>315.72</ele>
        <time>2020-08-19T18:56:51.000Z</time>
      </trkpt>
      <trkpt lat="48.66237" lon="7.19585">
        <ele>315.97</ele>
        <time>2020-08-19T18:56:52.000Z</time>
      </trkpt>
      <trkpt lat="48.66242" lon="7.19573">
        <ele>314.48</ele>
        <time>2020-08-19T18:56:53.000Z</time>
      </trkpt>
      <trkpt lat="48.66248" lon="7.19561">
        <ele>315.22</ele>
        <time>2020-08-19T18:56:54.000Z</time>
      </trkpt>
      <trkpt lat="48.66253" lon="7.19551">
        <ele>314.45</ele>
        <time>2020-08-19T18:56:55.000Z</time>
      </trkpt>
      <trkpt lat="48.66263" lon="7.19541">
        <ele>314.18</ele>
        <time>2020-08-19T18:56:56.000Z</time>
      </trkpt>
      <trkpt lat="48.6627" lon="7.19532">
        <ele>313.93</ele>
        <time>2020-08-19T18:56:57.000Z</time>
      </trkpt>
      <trkpt lat="48.66276" lon="7.19523">
        <ele>313.81</ele>
        <time>2020-08-19T18:56:58.000Z</time>
      </trkpt>
      <trkpt lat="48.66283" lon="7.19514">
        <ele>313.44</ele>
        <time>2020-08-19T18:56:59.000Z</time>
      </trkpt>
      <trkpt lat="48.6629" lon="7.19505">
        <ele>314.22</ele>
        <time>2020-08-19T18:57:00.000Z</time>
      </trkpt>
      <trkpt lat="48.66297" lon="7.19496">
        <ele>314.52</ele>
        <time>2020-08-19T18:57:01.000Z</time>
      </trkpt>
      <trkpt lat="48.66303" lon="7.19488">
        <ele>314.64</ele>
        <time>2020-08-19T18:57:02.000Z</time>
      </trkpt>
      <trkpt lat="48.66308" lon="7.19478">
        <ele>314.31</ele>
        <time>2020-08-19T18:57:03.000Z</time>
      </trkpt>
      <trkpt lat="48.66314" lon="7.1947">
        <ele>313.86</ele>
        <time>2020-08-19T18:57:04.000Z</time>
      </trkpt>
      <trkpt lat="48.66321" lon="7.19463">
        <ele>312.65</ele>
        <time>2020-08-19T18:57:05.000Z</time>
      </trkpt>
      <trkpt lat="48.6633" lon="7.19458">
        <ele>313.64</ele>
        <time>2020-08-19T18:57:06.000Z</time>
      </trkpt>
      <trkpt lat="48.66339" lon="7.19456">
        <ele>313.89</ele>
        <time>2020-08-19T18:57:07.000Z</time>
      </trkpt>
      <trkpt lat="48.66347" lon="7.19455">
        <ele>311.04</ele>
        <time>2020-08-19T18:57:08.000Z</time>
      </trkpt>
      <trkpt lat="48.66355" lon="7.19454">
        <ele>312.03</ele>
        <time>2020-08-19T18:57:09.000Z</time>
      </trkpt>
      <trkpt lat="48.66364" lon="7.19452">
        <ele>312.47</ele>
        <time>2020-08-19T18:57:10.000Z</time>
      </trkpt>
      <trkpt lat="48.66373" lon="7.19452">
        <ele>311.5</ele>
        <time>2020-08-19T18:57:11.000Z</time>
      </trkpt>
      <trkpt lat="48.66381" lon="7.19452">
        <ele>313</ele>
        <time>2020-08-19T18:57:12.000Z</time>
      </trkpt>
      <trkpt lat="48.6639" lon="7.1945">
        <ele>313.13</ele>
        <time>2020-08-19T18:57:13.000Z</time>
      </trkpt>
      <trkpt lat="48.66398" lon="7.19448">
        <ele>313.52</ele>
        <time>2020-08-19T18:57:14.000Z</time>
      </trkpt>
      <trkpt lat="48.66406" lon="7.19446">
        <ele>314.36</ele>
        <time>2020-08-19T18:57:15.000Z</time>
      </trkpt>
      <trkpt lat="48.66415" lon="7.19444">
        <ele>314.38</ele>
        <time>2020-08-19T18:57:16.000Z</time>
      </trkpt>
      <trkpt lat="48.66424" lon="7.19446">
        <ele>315.07</ele>
        <time>2020-08-19T18:57:17.000Z</time>
      </trkpt>
      <trkpt lat="48.66434" lon="7.19445">
        <ele>315.39</ele>
        <time>2020-08-19T18:57:18.000Z</time>
      </trkpt>
      <trkpt lat="48.66443" lon="7.19444">
        <ele>316.44</ele>
        <time>2020-08-19T18:57:19.000Z</time>
      </trkpt>
      <trkpt lat="48.66452" lon="7.19443">
        <ele>315.98</ele>
        <time>2020-08-19T18:57:20.000Z</time>
      </trkpt>
      <trkpt lat="48.66461" lon="7.19444">
        <ele>316.39</ele>
        <time>2020-08-19T18:57:21.000Z</time>
      </trkpt>
      <trkpt lat="48.6647" lon="7.19445">
        <ele>317.09</ele>
        <time>2020-08-19T18:57:22.000Z</time>
      </trkpt>
      <trkpt lat="48.66479" lon="7.19445">
        <ele>317.59</ele>
        <time>2020-08-19T18:57:23.000Z</time>
      </trkpt>
      <trkpt lat="48.66487" lon="7.19444">
        <ele>317.42</ele>
        <time>2020-08-19T18:57:24.000Z</time>
      </trkpt>
      <trkpt lat="48.66497" lon="7.19443">
        <ele>316.14</ele>
        <time>2020-08-19T18:57:25.000Z</time>
      </trkpt>
      <trkpt lat="48.66506" lon="7.19443">
        <ele>316.45</ele>
        <time>2020-08-19T18:57:26.000Z</time>
      </trkpt>
      <trkpt lat="48.66515" lon="7.19444">
        <ele>317.62</ele>
        <time>2020-08-19T18:57:27.000Z</time>
      </trkpt>
      <trkpt lat="48.66524" lon="7.19445">
        <ele>317.67</ele>
        <time>2020-08-19T18:57:28.000Z</time>
      </trkpt>
      <trkpt lat="48.66533" lon="7.19445">
        <ele>317.2</ele>
        <time>2020-08-19T18:57:29.000Z</time>
      </trkpt>
      <trkpt lat="48.66541" lon="7.19447">
        <ele>316.26</ele>
        <time>2020-08-19T18:57:30.000Z</time>
      </trkpt>
      <trkpt lat="48.6655" lon="7.19447">
        <ele>316.67</ele>
        <time>2020-08-19T18:57:31.000Z</time>
      </trkpt>
      <trkpt lat="48.66558" lon="7.19448">
        <ele>317.4</ele>
        <time>2020-08-19T18:57:32.000Z</time>
      </trkpt>
      <trkpt lat="48.66567" lon="7.19447">
        <ele>318.82</ele>
        <time>2020-08-19T18:57:33.000Z</time>
      </trkpt>
      <trkpt lat="48.66577" lon="7.19447">
        <ele>319.21</ele>
        <time>2020-08-19T18:57:34.000Z</time>
      </trkpt>
      <trkpt lat="48.66586" lon="7.19447">
        <ele>320.02</ele>
        <time>2020-08-19T18:57:35.000Z</time>
      </trkpt>
      <trkpt lat="48.66595" lon="7.19448">
        <ele>319.57</ele>
        <time>2020-08-19T18:57:36.000Z</time>
      </trkpt>
      <trkpt lat="48.66604" lon="7.1945">
        <ele>319.54</ele>
        <time>2020-08-19T18:57:37.000Z</time>
      </trkpt>
      <trkpt lat="48.66611" lon="7.19455">
        <ele>318.56</ele>
        <time>2020-08-19T18:57:38.000Z</time>
      </trkpt>
      <trkpt lat="48.66618" lon="7.19461">
        <ele>318.9</ele>
        <time>2020-08-19T18:57:39.000Z</time>
      </trkpt>
      <trkpt lat="48.66625" lon="7.19468">
        <ele>320.38</ele>
        <time>2020-08-19T18:57:40.000Z</time>
      </trkpt>
      <trkpt lat="48.66632" lon="7.19476">
        <ele>319.29</ele>
        <time>2020-08-19T18:57:41.000Z</time>
      </trkpt>
      <trkpt lat="48.66639" lon="7.19483">
        <ele>318.67</ele>
        <time>2020-08-19T18:57:42.000Z</time>
      </trkpt>
      <trkpt lat="48.66647" lon="7.19489">
        <ele>319.1</ele>
        <time>2020-08-19T18:57:43.000Z</time>
      </trkpt>
      <trkpt lat="48.66655" lon="7.19494">
        <ele>316.59</ele>
        <time>2020-08-19T18:57:44.000Z</time>
      </trkpt>
      <trkpt lat="48.66663" lon="7.19499">
        <ele>315.66</ele>
        <time>2020-08-19T18:57:45.000Z</time>
      </trkpt>
      <trkpt lat="48.6667" lon="7.19506">
        <ele>314.83</ele>
        <time>2020-08-19T18:57:46.000Z</time>
      </trkpt>
      <trkpt lat="48.66677" lon="7.19513">
        <ele>313.97</ele>
        <time>2020-08-19T18:57:47.000Z</time>
      </trkpt>
      <trkpt lat="48.66686" lon="7.19519">
        <ele>314.39</ele>
        <time>2020-08-19T18:57:48.000Z</time>
      </trkpt>
      <trkpt lat="48.66694" lon="7.19525">
        <ele>314.56</ele>
        <time>2020-08-19T18:57:49.000Z</time>
      </trkpt>
      <trkpt lat="48.66701" lon="7.19532">
        <ele>314.21</ele>
        <time>2020-08-19T18:57:50.000Z</time>
      </trkpt>
      <trkpt lat="48.66708" lon="7.19539">
        <ele>313.08</ele>
        <time>2020-08-19T18:57:51.000Z</time>
      </trkpt>
      <trkpt lat="48.66715" lon="7.19547">
        <ele>313.25</ele>
        <time>2020-08-19T18:57:52.000Z</time>
      </trkpt>
      <trkpt lat="48.66724" lon="7.19553">
        <ele>313.69</ele>
        <time>2020-08-19T18:57:53.000Z</time>
      </trkpt>
      <trkpt lat="48.66731" lon="7.1956">
        <ele>314.1</ele>
        <time>2020-08-19T18:57:54.000Z</time>
      </trkpt>
      <trkpt lat="48.66738" lon="7.19569">
        <ele>313.95</ele>
        <time>2020-08-19T18:57:55.000Z</time>
      </trkpt>
      <trkpt lat="48.66746" lon="7.19576">
        <ele>314.77</ele>
        <time>2020-08-19T18:57:56.000Z</time>
      </trkpt>
      <trkpt lat="48.66754" lon="7.19583">
        <ele>316.56</ele>
        <time>2020-08-19T18:57:57.000Z</time>
      </trkpt>
      <trkpt lat="48.66762" lon="7.19589">
        <ele>316.78</ele>
        <time>2020-08-19T18:57:58.000Z</time>
      </trkpt>
      <trkpt lat="48.66769" lon="7.19595">
        <ele>316.83</ele>
        <time>2020-08-19T18:57:59.000Z</time>
      </trkpt>
      <trkpt lat="48.66777" lon="7.19603">
        <ele>316.23</ele>
        <time>2020-08-19T18:58:00.000Z</time>
      </trkpt>
      <trkpt lat="48.66785" lon="7.19609">
        <ele>315.85</ele>
        <time>2020-08-19T18:58:01.000Z</time>
      </trkpt>
      <trkpt lat="48.66794" lon="7.19613">
        <ele>316.17</ele>
        <time>2020-08-19T18:58:02.000Z</time>
      </trkpt>
      <trkpt lat="48.66803" lon="7.19616">
        <ele>316.12</ele>
        <time>2020-08-19T18:58:03.000Z</time>
      </trkpt>
      <trkpt lat="48.66811" lon="7.19618">
        <ele>315.73</ele>
        <time>2020-08-19T18:58:04.000Z</time>
      </trkpt>
      <trkpt lat="48.66819" lon="7.19617">
        <ele>315.72</ele>
        <time>2020-08-19T18:58:05.000Z</time>
      </trkpt>
      <trkpt lat="48.66827" lon="7.19616">
        <ele>315.29</ele>
        <time>2020-08-19T18:58:06.000Z</time>
      </trkpt>
      <trkpt lat="48.66836" lon="7.19614">
        <ele>315.21</ele>
        <time>2020-08-19T18:58:07.000Z</time>
      </trkpt>
      <trkpt lat="48.66845" lon="7.19611">
        <ele>315.01</ele>
        <time>2020-08-19T18:58:08.000Z</time>
      </trkpt>
      <trkpt lat="48.66854" lon="7.19607">
        <ele>315.4</ele>
        <time>2020-08-19T18:58:09.000Z</time>
      </trkpt>
      <trkpt lat="48.66862" lon="7.19603">
        <ele>314.06</ele>
        <time>2020-08-19T18:58:10.000Z</time>
      </trkpt>
      <trkpt lat="48.6687" lon="7.19598">
        <ele>314.06</ele>
        <time>2020-08-19T18:58:11.000Z</time>
      </trkpt>
      <trkpt lat="48.66879" lon="7.19592">
        <ele>314.65</ele>
        <time>2020-08-19T18:58:12.000Z</time>
      </trkpt>
      <trkpt lat="48.66887" lon="7.19588">
        <ele>314.27</ele>
        <time>2020-08-19T18:58:13.000Z</time>
      </trkpt>
      <trkpt lat="48.66895" lon="7.19585">
        <ele>314.28</ele>
        <time>2020-08-19T18:58:14.000Z</time>
      </trkpt>
      <trkpt lat="48.66904" lon="7.1958">
        <ele>313.07</ele>
        <time>2020-08-19T18:58:15.000Z</time>
      </trkpt>
      <trkpt lat="48.66913" lon="7.19574">
        <ele>310.07</ele>
        <time>2020-08-19T18:58:16.000Z</time>
      </trkpt>
      <trkpt lat="48.6692" lon="7.19571">
        <ele>307.34</ele>
        <time>2020-08-19T18:58:17.000Z</time>
      </trkpt>
      <trkpt lat="48.66928" lon="7.19565">
        <ele>307.1</ele>
        <time>2020-08-19T18:58:18.000Z</time>
      </trkpt>
      <trkpt lat="48.66937" lon="7.1956">
        <ele>305.64</ele>
        <time>2020-08-19T18:58:19.000Z</time>
      </trkpt>
      <trkpt lat="48.66945" lon="7.19554">
        <ele>307.36</ele>
        <time>2020-08-19T18:58:20.000Z</time>
      </trkpt>
      <trkpt lat="48.66952" lon="7.19548">
        <ele>305.91</ele>
        <time>2020-08-19T18:58:21.000Z</time>
      </trkpt>
      <trkpt lat="48.66961" lon="7.19543">
        <ele>306.03</ele>
        <time>2020-08-19T18:58:22.000Z</time>
      </trkpt>
      <trkpt lat="48.66968" lon="7.19535">
        <ele>305.5</ele>
        <time>2020-08-19T18:58:23.000Z</time>
      </trkpt>
      <trkpt lat="48.66974" lon="7.19526">
        <ele>305.76</ele>
        <time>2020-08-19T18:58:24.000Z</time>
      </trkpt>
      <trkpt lat="48.66979" lon="7.19517">
        <ele>305.77</ele>
        <time>2020-08-19T18:58:25.000Z</time>
      </trkpt>
      <trkpt lat="48.66985" lon="7.19509">
        <ele>303.83</ele>
        <time>2020-08-19T18:58:26.000Z</time>
      </trkpt>
      <trkpt lat="48.66991" lon="7.19498">
        <ele>304.29</ele>
        <time>2020-08-19T18:58:27.000Z</time>
      </trkpt>
      <trkpt lat="48.66997" lon="7.19491">
        <ele>304.43</ele>
        <time>2020-08-19T18:58:28.000Z</time>
      </trkpt>
      <trkpt lat="48.67005" lon="7.19488">
        <ele>306.73</ele>
        <time>2020-08-19T18:58:29.000Z</time>
      </trkpt>
      <trkpt lat="48.67014" lon="7.19486">
        <ele>306.95</ele>
        <time>2020-08-19T18:58:30.000Z</time>
      </trkpt>
      <trkpt lat="48.67023" lon="7.19488">
        <ele>306.62</ele>
        <time>2020-08-19T18:58:31.000Z</time>
      </trkpt>
      <trkpt lat="48.67031" lon="7.1949">
        <ele>306.44</ele>
        <time>2020-08-19T18:58:32.000Z</time>
      </trkpt>
      <trkpt lat="48.67039" lon="7.19491">
        <ele>306.91</ele>
        <time>2020-08-19T18:58:33.000Z</time>
      </trkpt>
      <trkpt lat="48.67048" lon="7.19491">
        <ele>306.97</ele>
        <time>2020-08-19T18:58:34.000Z</time>
      </trkpt>
      <trkpt lat="48.67055" lon="7.19491">
        <ele>306.52</ele>
        <time>2020-08-19T18:58:35.000Z</time>
      </trkpt>
      <trkpt lat="48.67063" lon="7.19492">
        <ele>307.51</ele>
        <time>2020-08-19T18:58:36.000Z</time>
      </trkpt>
      <trkpt lat="48.6707" lon="7.19488">
        <ele>307.21</ele>
        <time>2020-08-19T18:58:37.000Z</time>
      </trkpt>
      <trkpt lat="48.67078" lon="7.19481">
        <ele>307.54</ele>
        <time>2020-08-19T18:58:38.000Z</time>
      </trkpt>
      <trkpt lat="48.67087" lon="7.19479">
        <ele>307.77</ele>
        <time>2020-08-19T18:58:39.000Z</time>
      </trkpt>
      <trkpt lat="48.67096" lon="7.19475">
        <ele>307.4</ele>
        <time>2020-08-19T18:58:40.000Z</time>
      </trkpt>
      <trkpt lat="48.67104" lon="7.19471">
        <ele>307.35</ele>
        <time>2020-08-19T18:58:41.000Z</time>
      </trkpt>
      <trkpt lat="48.67112" lon="7.19469">
        <ele>307.76</ele>
        <time>2020-08-19T18:58:42.000Z</time>
      </trkpt>
      <trkpt lat="48.67121" lon="7.19466">
        <ele>307.23</ele>
        <time>2020-08-19T18:58:43.000Z</time>
      </trkpt>
      <trkpt lat="48.6713" lon="7.19465">
        <ele>308</ele>
        <time>2020-08-19T18:58:44.000Z</time>
      </trkpt>
      <trkpt lat="48.67139" lon="7.19464">
        <ele>308.12</ele>
        <time>2020-08-19T18:58:45.000Z</time>
      </trkpt>
      <trkpt lat="48.67147" lon="7.19468">
        <ele>308.52</ele>
        <time>2020-08-19T18:58:46.000Z</time>
      </trkpt>
      <trkpt lat="48.67155" lon="7.1947">
        <ele>308.4</ele>
        <time>2020-08-19T18:58:47.000Z</time>
      </trkpt>
      <trkpt lat="48.67165" lon="7.19473">
        <ele>308.59</ele>
        <time>2020-08-19T18:58:48.000Z</time>
      </trkpt>
      <trkpt lat="48.67172" lon="7.19476">
        <ele>305.27</ele>
        <time>2020-08-19T18:58:49.000Z</time>
      </trkpt>
      <trkpt lat="48.67182" lon="7.19477">
        <ele>305.65</ele>
        <time>2020-08-19T18:58:50.000Z</time>
      </trkpt>
      <trkpt lat="48.6719" lon="7.19478">
        <ele>303.72</ele>
        <time>2020-08-19T18:58:51.000Z</time>
      </trkpt>
      <trkpt lat="48.67198" lon="7.19481">
        <ele>303.64</ele>
        <time>2020-08-19T18:58:52.000Z</time>
      </trkpt>
      <trkpt lat="48.67208" lon="7.19482">
        <ele>303.64</ele>
        <time>2020-08-19T18:58:53.000Z</time>
      </trkpt>
      <trkpt lat="48.67216" lon="7.19484">
        <ele>302.7</ele>
        <time>2020-08-19T18:58:54.000Z</time>
      </trkpt>
      <trkpt lat="48.67224" lon="7.19487">
        <ele>304.27</ele>
        <time>2020-08-19T18:58:55.000Z</time>
      </trkpt>
      <trkpt lat="48.67234" lon="7.19489">
        <ele>304.09</ele>
        <time>2020-08-19T18:58:56.000Z</time>
      </trkpt>
      <trkpt lat="48.67243" lon="7.19489">
        <ele>304.23</ele>
        <time>2020-08-19T18:58:57.000Z</time>
      </trkpt>
      <trkpt lat="48.67253" lon="7.19486">
        <ele>306</ele>
        <time>2020-08-19T18:58:58.000Z</time>
      </trkpt>
      <trkpt lat="48.67263" lon="7.19484">
        <ele>306.2</ele>
        <time>2020-08-19T18:58:59.000Z</time>
      </trkpt>
      <trkpt lat="48.67272" lon="7.19484">
        <ele>306.91</ele>
        <time>2020-08-19T18:59:00.000Z</time>
      </trkpt>
      <trkpt lat="48.67281" lon="7.19486">
        <ele>307</ele>
        <time>2020-08-19T18:59:01.000Z</time>
      </trkpt>
      <trkpt lat="48.6729" lon="7.19486">
        <ele>305.6</ele>
        <time>2020-08-19T18:59:02.000Z</time>
      </trkpt>
      <trkpt lat="48.67299" lon="7.19486">
        <ele>305.94</ele>
        <time>2020-08-19T18:59:03.000Z</time>
      </trkpt>
      <trkpt lat="48.67309" lon="7.19483">
        <ele>306.86</ele>
        <time>2020-08-19T18:59:04.000Z</time>
      </trkpt>
      <trkpt lat="48.67317" lon="7.19483">
        <ele>306.43</ele>
        <time>2020-08-19T18:59:05.000Z</time>
      </trkpt>
      <trkpt lat="48.67326" lon="7.19483">
        <ele>306.67</ele>
        <time>2020-08-19T18:59:06.000Z</time>
      </trkpt>
      <trkpt lat="48.67334" lon="7.19482">
        <ele>307.74</ele>
        <time>2020-08-19T18:59:07.000Z</time>
      </trkpt>
      <trkpt lat="48.67343" lon="7.1948">
        <ele>307.72</ele>
        <time>2020-08-19T18:59:08.000Z</time>
      </trkpt>
      <trkpt lat="48.67351" lon="7.19482">
        <ele>307.07</ele>
        <time>2020-08-19T18:59:09.000Z</time>
      </trkpt>
      <trkpt lat="48.6736" lon="7.1948">
        <ele>305.49</ele>
        <time>2020-08-19T18:59:10.000Z</time>
      </trkpt>
      <trkpt lat="48.67369" lon="7.1948">
        <ele>305.54</ele>
        <time>2020-08-19T18:59:11.000Z</time>
      </trkpt>
      <trkpt lat="48.67377" lon="7.1948">
        <ele>307.01</ele>
        <time>2020-08-19T18:59:12.000Z</time>
      </trkpt>
      <trkpt lat="48.67386" lon="7.1948">
        <ele>307.82</ele>
        <time>2020-08-19T18:59:13.000Z</time>
      </trkpt>
      <trkpt lat="48.67394" lon="7.19477">
        <ele>306.02</ele>
        <time>2020-08-19T18:59:14.000Z</time>
      </trkpt>
      <trkpt lat="48.67404" lon="7.19477">
        <ele>305.9</ele>
        <time>2020-08-19T18:59:15.000Z</time>
      </trkpt>
      <trkpt lat="48.67413" lon="7.19479">
        <ele>306.47</ele>
        <time>2020-08-19T18:59:16.000Z</time>
      </trkpt>
      <trkpt lat="48.67421" lon="7.19482">
        <ele>305.48</ele>
        <time>2020-08-19T18:59:17.000Z</time>
      </trkpt>
      <trkpt lat="48.67429" lon="7.19488">
        <ele>306.17</ele>
        <time>2020-08-19T18:59:18.000Z</time>
      </trkpt>
      <trkpt lat="48.67437" lon="7.19494">
        <ele>305.44</ele>
        <time>2020-08-19T18:59:19.000Z</time>
      </trkpt>
      <trkpt lat="48.67444" lon="7.19504">
        <ele>304.26</ele>
        <time>2020-08-19T18:59:20.000Z</time>
      </trkpt>
      <trkpt lat="48.67449" lon="7.19513">
        <ele>304.02</ele>
        <time>2020-08-19T18:59:21.000Z</time>
      </trkpt>
      <trkpt lat="48.67456" lon="7.19523">
        <ele>304.26</ele>
        <time>2020-08-19T18:59:22.000Z</time>
      </trkpt>
      <trkpt lat="48.67463" lon="7.1953">
        <ele>303.91</ele>
        <time>2020-08-19T18:59:23.000Z</time>
      </trkpt>
      <trkpt lat="48.6747" lon="7.19539">
        <ele>303.38</ele>
        <time>2020-08-19T18:59:24.000Z</time>
      </trkpt>
      <trkpt lat="48.67478" lon="7.19546">
        <ele>303.97</ele>
        <time>2020-08-19T18:59:25.000Z</time>
      </trkpt>
      <trkpt lat="48.67485" lon="7.19551">
        <ele>303.72</ele>
        <time>2020-08-19T18:59:26.000Z</time>
      </trkpt>
      <trkpt lat="48.67493" lon="7.19558">
        <ele>303.44</ele>
        <time>2020-08-19T18:59:27.000Z</time>
      </trkpt>
      <trkpt lat="48.67501" lon="7.19563">
        <ele>303.52</ele>
        <time>2020-08-19T18:59:28.000Z</time>
      </trkpt>
      <trkpt lat="48.67507" lon="7.19569">
        <ele>303.09</ele>
        <time>2020-08-19T18:59:29.000Z</time>
      </trkpt>
      <trkpt lat="48.67514" lon="7.19574">
        <ele>303.13</ele>
        <time>2020-08-19T18:59:30.000Z</time>
      </trkpt>
      <trkpt lat="48.67544" lon="7.19601">
        <ele>305.58</ele>
        <time>2020-08-19T18:59:34.000Z</time>
      </trkpt>
      <trkpt lat="48.6755" lon="7.19607">
        <ele>304.88</ele>
        <time>2020-08-19T18:59:35.000Z</time>
      </trkpt>
      <trkpt lat="48.67558" lon="7.19615">
        <ele>305.43</ele>
        <time>2020-08-19T18:59:36.000Z</time>
      </trkpt>
      <trkpt lat="48.67565" lon="7.19623">
        <ele>304.99</ele>
        <time>2020-08-19T18:59:37.000Z</time>
      </trkpt>
      <trkpt lat="48.67571" lon="7.19631">
        <ele>305</ele>
        <time>2020-08-19T18:59:38.000Z</time>
      </trkpt>
      <trkpt lat="48.67578" lon="7.19639">
        <ele>305.57</ele>
        <time>2020-08-19T18:59:39.000Z</time>
      </trkpt>
      <trkpt lat="48.67586" lon="7.19646">
        <ele>306.11</ele>
        <time>2020-08-19T18:59:40.000Z</time>
      </trkpt>
      <trkpt lat="48.67594" lon="7.19651">
        <ele>306</ele>
        <time>2020-08-19T18:59:41.000Z</time>
      </trkpt>
      <trkpt lat="48.67602" lon="7.19655">
        <ele>305.23</ele>
        <time>2020-08-19T18:59:42.000Z</time>
      </trkpt>
      <trkpt lat="48.67607" lon="7.19665">
        <ele>306.56</ele>
        <time>2020-08-19T18:59:43.000Z</time>
      </trkpt>
      <trkpt lat="48.67618" lon="7.19667">
        <ele>306.36</ele>
        <time>2020-08-19T18:59:44.000Z</time>
      </trkpt>
      <trkpt lat="48.67626" lon="7.19671">
        <ele>306.07</ele>
        <time>2020-08-19T18:59:45.000Z</time>
      </trkpt>
      <trkpt lat="48.67634" lon="7.19675">
        <ele>307.34</ele>
        <time>2020-08-19T18:59:46.000Z</time>
      </trkpt>
      <trkpt lat="48.67644" lon="7.19678">
        <ele>306.98</ele>
        <time>2020-08-19T18:59:47.000Z</time>
      </trkpt>
      <trkpt lat="48.67653" lon="7.19677">
        <ele>306.71</ele>
        <time>2020-08-19T18:59:48.000Z</time>
      </trkpt>
      <trkpt lat="48.67661" lon="7.19674">
        <ele>306.61</ele>
        <time>2020-08-19T18:59:49.000Z</time>
      </trkpt>
      <trkpt lat="48.67669" lon="7.19672">
        <ele>306.32</ele>
        <time>2020-08-19T18:59:50.000Z</time>
      </trkpt>
      <trkpt lat="48.67677" lon="7.19666">
        <ele>306.73</ele>
        <time>2020-08-19T18:59:51.000Z</time>
      </trkpt>
      <trkpt lat="48.67685" lon="7.19664">
        <ele>307.07</ele>
        <time>2020-08-19T18:59:52.000Z</time>
      </trkpt>
      <trkpt lat="48.67694" lon="7.19662">
        <ele>307.47</ele>
        <time>2020-08-19T18:59:53.000Z</time>
      </trkpt>
      <trkpt lat="48.67701" lon="7.19661">
        <ele>308.1</ele>
        <time>2020-08-19T18:59:54.000Z</time>
      </trkpt>
      <trkpt lat="48.6771" lon="7.1966">
        <ele>308.48</ele>
        <time>2020-08-19T18:59:55.000Z</time>
      </trkpt>
      <trkpt lat="48.67718" lon="7.19658">
        <ele>309.49</ele>
        <time>2020-08-19T18:59:56.000Z</time>
      </trkpt>
      <trkpt lat="48.67727" lon="7.19655">
        <ele>310.4</ele>
        <time>2020-08-19T18:59:57.000Z</time>
      </trkpt>
      <trkpt lat="48.67734" lon="7.19654">
        <ele>310.71</ele>
        <time>2020-08-19T18:59:58.000Z</time>
      </trkpt>
      <trkpt lat="48.67743" lon="7.19655">
        <ele>309.18</ele>
        <time>2020-08-19T18:59:59.000Z</time>
      </trkpt>
      <trkpt lat="48.6775" lon="7.19656">
        <ele>305.99</ele>
        <time>2020-08-19T19:00:00.000Z</time>
      </trkpt>
      <trkpt lat="48.67758" lon="7.19652">
        <ele>305.76</ele>
        <time>2020-08-19T19:00:01.000Z</time>
      </trkpt>
      <trkpt lat="48.67766" lon="7.19647">
        <ele>305.34</ele>
        <time>2020-08-19T19:00:02.000Z</time>
      </trkpt>
      <trkpt lat="48.67775" lon="7.19642">
        <ele>305.67</ele>
        <time>2020-08-19T19:00:03.000Z</time>
      </trkpt>
      <trkpt lat="48.67782" lon="7.19636">
        <ele>305.43</ele>
        <time>2020-08-19T19:00:04.000Z</time>
      </trkpt>
      <trkpt lat="48.67791" lon="7.1963">
        <ele>305.26</ele>
        <time>2020-08-19T19:00:05.000Z</time>
      </trkpt>
      <trkpt lat="48.67798" lon="7.19623">
        <ele>305.58</ele>
        <time>2020-08-19T19:00:06.000Z</time>
      </trkpt>
      <trkpt lat="48.67806" lon="7.19618">
        <ele>305.75</ele>
        <time>2020-08-19T19:00:07.000Z</time>
      </trkpt>
      <trkpt lat="48.67813" lon="7.19612">
        <ele>305.79</ele>
        <time>2020-08-19T19:00:08.000Z</time>
      </trkpt>
      <trkpt lat="48.6782" lon="7.19608">
        <ele>305.79</ele>
        <time>2020-08-19T19:00:09.000Z</time>
      </trkpt>
      <trkpt lat="48.67827" lon="7.19604">
        <ele>306.53</ele>
        <time>2020-08-19T19:00:10.000Z</time>
      </trkpt>
      <trkpt lat="48.67834" lon="7.19599">
        <ele>306.76</ele>
        <time>2020-08-19T19:00:11.000Z</time>
      </trkpt>
      <trkpt lat="48.67842" lon="7.19596">
        <ele>306.54</ele>
        <time>2020-08-19T19:00:12.000Z</time>
      </trkpt>
      <trkpt lat="48.67849" lon="7.19592">
        <ele>306.91</ele>
        <time>2020-08-19T19:00:13.000Z</time>
      </trkpt>
      <trkpt lat="48.67856" lon="7.19589">
        <ele>306.8</ele>
        <time>2020-08-19T19:00:14.000Z</time>
      </trkpt>
      <trkpt lat="48.67864" lon="7.19587">
        <ele>306.86</ele>
        <time>2020-08-19T19:00:15.000Z</time>
      </trkpt>
      <trkpt lat="48.67872" lon="7.19584">
        <ele>306.29</ele>
        <time>2020-08-19T19:00:16.000Z</time>
      </trkpt>
      <trkpt lat="48.6788" lon="7.19582">
        <ele>305.78</ele>
        <time>2020-08-19T19:00:17.000Z</time>
      </trkpt>
      <trkpt lat="48.67889" lon="7.1958">
        <ele>305.97</ele>
        <time>2020-08-19T19:00:18.000Z</time>
      </trkpt>
      <trkpt lat="48.67897" lon="7.19578">
        <ele>305.61</ele>
        <time>2020-08-19T19:00:19.000Z</time>
      </trkpt>
      <trkpt lat="48.67907" lon="7.19576">
        <ele>305.14</ele>
        <time>2020-08-19T19:00:20.000Z</time>
      </trkpt>
      <trkpt lat="48.67916" lon="7.19575">
        <ele>304.51</ele>
        <time>2020-08-19T19:00:21.000Z</time>
      </trkpt>
      <trkpt lat="48.67925" lon="7.19576">
        <ele>304.32</ele>
        <time>2020-08-19T19:00:22.000Z</time>
      </trkpt>
      <trkpt lat="48.67934" lon="7.19577">
        <ele>304.86</ele>
        <time>2020-08-19T19:00:23.000Z</time>
      </trkpt>
      <trkpt lat="48.67943" lon="7.19579">
        <ele>303.83</ele>
        <time>2020-08-19T19:00:24.000Z</time>
      </trkpt>
      <trkpt lat="48.67951" lon="7.19581">
        <ele>304.04</ele>
        <time>2020-08-19T19:00:25.000Z</time>
      </trkpt>
      <trkpt lat="48.67961" lon="7.19582">
        <ele>303.97</ele>
        <time>2020-08-19T19:00:26.000Z</time>
      </trkpt>
      <trkpt lat="48.6797" lon="7.19585">
        <ele>304.74</ele>
        <time>2020-08-19T19:00:27.000Z</time>
      </trkpt>
      <trkpt lat="48.67979" lon="7.19588">
        <ele>304.52</ele>
        <time>2020-08-19T19:00:28.000Z</time>
      </trkpt>
      <trkpt lat="48.67988" lon="7.1959">
        <ele>305.62</ele>
        <time>2020-08-19T19:00:29.000Z</time>
      </trkpt>
      <trkpt lat="48.67997" lon="7.19593">
        <ele>304.81</ele>
        <time>2020-08-19T19:00:30.000Z</time>
      </trkpt>
      <trkpt lat="48.68006" lon="7.19594">
        <ele>305.21</ele>
        <time>2020-08-19T19:00:31.000Z</time>
      </trkpt>
      <trkpt lat="48.68015" lon="7.19596">
        <ele>304.56</ele>
        <time>2020-08-19T19:00:32.000Z</time>
      </trkpt>
      <trkpt lat="48.68024" lon="7.19599">
        <ele>305.23</ele>
        <time>2020-08-19T19:00:33.000Z</time>
      </trkpt>
      <trkpt lat="48.68032" lon="7.19602">
        <ele>304.6</ele>
        <time>2020-08-19T19:00:34.000Z</time>
      </trkpt>
      <trkpt lat="48.68041" lon="7.19603">
        <ele>305.84</ele>
        <time>2020-08-19T19:00:35.000Z</time>
      </trkpt>
      <trkpt lat="48.68051" lon="7.19604">
        <ele>304.27</ele>
        <time>2020-08-19T19:00:36.000Z</time>
      </trkpt>
      <trkpt lat="48.6806" lon="7.19607">
        <ele>304.51</ele>
        <time>2020-08-19T19:00:37.000Z</time>
      </trkpt>
      <trkpt lat="48.6807" lon="7.19609">
        <ele>304.14</ele>
        <time>2020-08-19T19:00:38.000Z</time>
      </trkpt>
      <trkpt lat="48.6808" lon="7.19611">
        <ele>303.47</ele>
        <time>2020-08-19T19:00:39.000Z</time>
      </trkpt>
      <trkpt lat="48.68089" lon="7.19614">
        <ele>302.82</ele>
        <time>2020-08-19T19:00:40.000Z</time>
      </trkpt>
      <trkpt lat="48.68097" lon="7.19616">
        <ele>302.5</ele>
        <time>2020-08-19T19:00:41.000Z</time>
      </trkpt>
      <trkpt lat="48.68105" lon="7.19619">
        <ele>302.41</ele>
        <time>2020-08-19T19:00:42.000Z</time>
      </trkpt>
      <trkpt lat="48.68112" lon="7.19622">
        <ele>301.68</ele>
        <time>2020-08-19T19:00:43.000Z</time>
      </trkpt>
      <trkpt lat="48.6812" lon="7.19625">
        <ele>300.16</ele>
        <time>2020-08-19T19:00:44.000Z</time>
      </trkpt>
      <trkpt lat="48.68128" lon="7.19628">
        <ele>299.39</ele>
        <time>2020-08-19T19:00:45.000Z</time>
      </trkpt>
      <trkpt lat="48.68136" lon="7.19633">
        <ele>298.56</ele>
        <time>2020-08-19T19:00:46.000Z</time>
      </trkpt>
      <trkpt lat="48.68143" lon="7.19638">
        <ele>297.23</ele>
        <time>2020-08-19T19:00:47.000Z</time>
      </trkpt>
      <trkpt lat="48.68151" lon="7.19644">
        <ele>296.64</ele>
        <time>2020-08-19T19:00:48.000Z</time>
      </trkpt>
      <trkpt lat="48.68158" lon="7.19651">
        <ele>294.91</ele>
        <time>2020-08-19T19:00:49.000Z</time>
      </trkpt>
      <trkpt lat="48.68165" lon="7.19658">
        <ele>294.11</ele>
        <time>2020-08-19T19:00:50.000Z</time>
      </trkpt>
      <trkpt lat="48.68171" lon="7.19666">
        <ele>293.34</ele>
        <time>2020-08-19T19:00:51.000Z</time>
      </trkpt>
      <trkpt lat="48.68175" lon="7.19675">
        <ele>292.9</ele>
        <time>2020-08-19T19:00:52.000Z</time>
      </trkpt>
      <trkpt lat="48.68178" lon="7.19685">
        <ele>293.08</ele>
        <time>2020-08-19T19:00:53.000Z</time>
      </trkpt>
      <trkpt lat="48.68181" lon="7.19694">
        <ele>292.37</ele>
        <time>2020-08-19T19:00:54.000Z</time>
      </trkpt>
      <trkpt lat="48.68183" lon="7.19701">
        <ele>292.58</ele>
        <time>2020-08-19T19:00:55.000Z</time>
      </trkpt>
      <trkpt lat="48.68184" lon="7.19708">
        <ele>294.59</ele>
        <time>2020-08-19T19:01:02.000Z</time>
      </trkpt>
      <trkpt lat="48.68188" lon="7.19712">
        <ele>396.8</ele>
        <time>2020-08-19T19:03:40.000Z</time>
      </trkpt>
      <trkpt lat="48.68183" lon="7.19713">
        <ele>287.31</ele>
        <time>2020-08-19T19:04:20.000Z</time>
      </trkpt>
    </trkseg>
  </trk>
</gpx>